<?xml version="1.0" encoding="UTF-8" standalone="no" ?>
<gpx xmlns="http://www.topografix.com/GPX/1/1" xmlns:xsi="http://www.w3.org/2001/XMLSchema-instance" xsi:schemaLocation="http://www.topografix.com/GPX/1/1 http://www.topografix.com/GPX/1/1/gpx.xsd" version="1.1" creator="VisuGPX - https://www.visugpx.com">
  <metadata>
    <name>Saône(g)-Fourvière-Saône(d)</name>
    <desc><![CDATA[Petite remise en jambe qui permet d'associer le calme de la Saône et deux pentes sympas.]]></desc>
  </metadata>
  <trk>
    <name><![CDATA[Sequence 1]]></name>
    <trkseg>
      <trkpt lat="45.7542" lon="4.82806">
        <ele>168</ele>
        <time>2016-09-06T05:08:03Z</time>
      </trkpt>
      <trkpt lat="45.75502" lon="4.82719">
        <ele>200</ele>
        <time>2016-09-06T05:10:02Z</time>
      </trkpt>
      <trkpt lat="45.75523" lon="4.82752">
        <ele>171</ele>
        <time>2016-09-06T05:10:14Z</time>
      </trkpt>
      <trkpt lat="45.75529" lon="4.82761">
        <ele>171</ele>
        <time>2016-09-06T05:10:18Z</time>
      </trkpt>
      <trkpt lat="45.75537" lon="4.8275">
        <ele>174</ele>
        <time>2016-09-06T05:10:21Z</time>
      </trkpt>
      <trkpt lat="45.7556" lon="4.82738">
        <ele>165</ele>
        <time>2016-09-06T05:10:31Z</time>
      </trkpt>
      <trkpt lat="45.75572" lon="4.82734">
        <ele>168</ele>
        <time>2016-09-06T05:10:38Z</time>
      </trkpt>
      <trkpt lat="45.75578" lon="4.82729">
        <ele>169</ele>
        <time>2016-09-06T05:10:42Z</time>
      </trkpt>
      <trkpt lat="45.75581" lon="4.82723">
        <ele>169</ele>
        <time>2016-09-06T05:10:45Z</time>
      </trkpt>
      <trkpt lat="45.75584" lon="4.82708">
        <ele>168</ele>
        <time>2016-09-06T05:10:53Z</time>
      </trkpt>
      <trkpt lat="45.75591" lon="4.82701">
        <ele>169</ele>
        <time>2016-09-06T05:10:57Z</time>
      </trkpt>
      <trkpt lat="45.75599" lon="4.82693">
        <ele>169</ele>
        <time>2016-09-06T05:11:03Z</time>
      </trkpt>
      <trkpt lat="45.75598" lon="4.82669">
        <ele>167</ele>
        <time>2016-09-06T05:11:12Z</time>
      </trkpt>
      <trkpt lat="45.75597" lon="4.82651">
        <ele>168</ele>
        <time>2016-09-06T05:11:18Z</time>
      </trkpt>
      <trkpt lat="45.75602" lon="4.82635">
        <ele>169</ele>
        <time>2016-09-06T05:11:25Z</time>
      </trkpt>
      <trkpt lat="45.75607" lon="4.82634">
        <ele>165</ele>
        <time>2016-09-06T05:11:27Z</time>
      </trkpt>
      <trkpt lat="45.75621" lon="4.8264">
        <ele>164</ele>
        <time>2016-09-06T05:11:33Z</time>
      </trkpt>
      <trkpt lat="45.75639" lon="4.82642">
        <ele>167</ele>
        <time>2016-09-06T05:11:42Z</time>
      </trkpt>
      <trkpt lat="45.75644" lon="4.82643">
        <ele>168</ele>
        <time>2016-09-06T05:11:45Z</time>
      </trkpt>
      <trkpt lat="45.75653" lon="4.82652">
        <ele>169</ele>
        <time>2016-09-06T05:11:51Z</time>
      </trkpt>
      <trkpt lat="45.75663" lon="4.82663">
        <ele>171</ele>
        <time>2016-09-06T05:11:58Z</time>
      </trkpt>
      <trkpt lat="45.7567" lon="4.82671">
        <ele>170</ele>
        <time>2016-09-06T05:12:03Z</time>
      </trkpt>
      <trkpt lat="45.7568" lon="4.82682">
        <ele>170</ele>
        <time>2016-09-06T05:12:11Z</time>
      </trkpt>
      <trkpt lat="45.75686" lon="4.82687">
        <ele>170</ele>
        <time>2016-09-06T05:12:15Z</time>
      </trkpt>
      <trkpt lat="45.75696" lon="4.82697">
        <ele>170</ele>
        <time>2016-09-06T05:12:22Z</time>
      </trkpt>
      <trkpt lat="45.75703" lon="4.82704">
        <ele>171</ele>
        <time>2016-09-06T05:12:27Z</time>
      </trkpt>
      <trkpt lat="45.7571" lon="4.82713">
        <ele>171</ele>
        <time>2016-09-06T05:12:33Z</time>
      </trkpt>
      <trkpt lat="45.75717" lon="4.82722">
        <ele>171</ele>
        <time>2016-09-06T05:12:39Z</time>
      </trkpt>
      <trkpt lat="45.75726" lon="4.82732">
        <ele>172</ele>
        <time>2016-09-06T05:12:46Z</time>
      </trkpt>
      <trkpt lat="45.75732" lon="4.8274">
        <ele>173</ele>
        <time>2016-09-06T05:12:51Z</time>
      </trkpt>
      <trkpt lat="45.7574" lon="4.82748">
        <ele>173</ele>
        <time>2016-09-06T05:12:57Z</time>
      </trkpt>
      <trkpt lat="45.75749" lon="4.82757">
        <ele>174</ele>
        <time>2016-09-06T05:13:03Z</time>
      </trkpt>
      <trkpt lat="45.75756" lon="4.82764">
        <ele>172</ele>
        <time>2016-09-06T05:13:09Z</time>
      </trkpt>
      <trkpt lat="45.75765" lon="4.82773">
        <ele>172</ele>
        <time>2016-09-06T05:13:16Z</time>
      </trkpt>
      <trkpt lat="45.75775" lon="4.82782">
        <ele>171</ele>
        <time>2016-09-06T05:13:23Z</time>
      </trkpt>
      <trkpt lat="45.75784" lon="4.82789">
        <ele>172</ele>
        <time>2016-09-06T05:13:29Z</time>
      </trkpt>
      <trkpt lat="45.75792" lon="4.82795">
        <ele>171</ele>
        <time>2016-09-06T05:13:35Z</time>
      </trkpt>
      <trkpt lat="45.75799" lon="4.82803">
        <ele>168</ele>
        <time>2016-09-06T05:13:41Z</time>
      </trkpt>
      <trkpt lat="45.75806" lon="4.8281">
        <ele>166</ele>
        <time>2016-09-06T05:13:47Z</time>
      </trkpt>
      <trkpt lat="45.75815" lon="4.82819">
        <ele>166</ele>
        <time>2016-09-06T05:13:53Z</time>
      </trkpt>
      <trkpt lat="45.75823" lon="4.82829">
        <ele>166</ele>
        <time>2016-09-06T05:13:59Z</time>
      </trkpt>
      <trkpt lat="45.7583" lon="4.82839">
        <ele>166</ele>
        <time>2016-09-06T05:14:05Z</time>
      </trkpt>
      <trkpt lat="45.75838" lon="4.82848">
        <ele>166</ele>
        <time>2016-09-06T05:14:11Z</time>
      </trkpt>
      <trkpt lat="45.75846" lon="4.82856">
        <ele>167</ele>
        <time>2016-09-06T05:14:17Z</time>
      </trkpt>
      <trkpt lat="45.75854" lon="4.82865">
        <ele>167</ele>
        <time>2016-09-06T05:14:23Z</time>
      </trkpt>
      <trkpt lat="45.75862" lon="4.82873">
        <ele>167</ele>
        <time>2016-09-06T05:14:29Z</time>
      </trkpt>
      <trkpt lat="45.7587" lon="4.82882">
        <ele>167</ele>
        <time>2016-09-06T05:14:35Z</time>
      </trkpt>
      <trkpt lat="45.75877" lon="4.82891">
        <ele>168</ele>
        <time>2016-09-06T05:14:41Z</time>
      </trkpt>
      <trkpt lat="45.75885" lon="4.829">
        <ele>168</ele>
        <time>2016-09-06T05:14:47Z</time>
      </trkpt>
      <trkpt lat="45.75892" lon="4.8291">
        <ele>167</ele>
        <time>2016-09-06T05:14:53Z</time>
      </trkpt>
      <trkpt lat="45.759" lon="4.82919">
        <ele>165</ele>
        <time>2016-09-06T05:14:59Z</time>
      </trkpt>
      <trkpt lat="45.75909" lon="4.82925">
        <ele>164</ele>
        <time>2016-09-06T05:15:05Z</time>
      </trkpt>
      <trkpt lat="45.75918" lon="4.8293">
        <ele>164</ele>
        <time>2016-09-06T05:15:11Z</time>
      </trkpt>
      <trkpt lat="45.75945" lon="4.8295">
        <ele>167</ele>
        <time>2016-09-06T05:15:31Z</time>
      </trkpt>
      <trkpt lat="45.75951" lon="4.8296">
        <ele>168</ele>
        <time>2016-09-06T05:15:36Z</time>
      </trkpt>
      <trkpt lat="45.75962" lon="4.82969">
        <ele>167</ele>
        <time>2016-09-06T05:15:42Z</time>
      </trkpt>
      <trkpt lat="45.75965" lon="4.82971">
        <ele>167</ele>
        <time>2016-09-06T05:15:44Z</time>
      </trkpt>
      <trkpt lat="45.75976" lon="4.82981">
        <ele>168</ele>
        <time>2016-09-06T05:15:51Z</time>
      </trkpt>
      <trkpt lat="45.75989" lon="4.82993">
        <ele>168</ele>
        <time>2016-09-06T05:16:00Z</time>
      </trkpt>
      <trkpt lat="45.75992" lon="4.82995">
        <ele>168</ele>
        <time>2016-09-06T05:16:02Z</time>
      </trkpt>
      <trkpt lat="45.76" lon="4.83003">
        <ele>168</ele>
        <time>2016-09-06T05:16:08Z</time>
      </trkpt>
      <trkpt lat="45.76009" lon="4.8301">
        <ele>168</ele>
        <time>2016-09-06T05:16:14Z</time>
      </trkpt>
      <trkpt lat="45.76017" lon="4.83019">
        <ele>168</ele>
        <time>2016-09-06T05:16:20Z</time>
      </trkpt>
      <trkpt lat="45.76026" lon="4.83027">
        <ele>167</ele>
        <time>2016-09-06T05:16:26Z</time>
      </trkpt>
      <trkpt lat="45.76034" lon="4.83035">
        <ele>167</ele>
        <time>2016-09-06T05:16:32Z</time>
      </trkpt>
      <trkpt lat="45.76043" lon="4.83043">
        <ele>167</ele>
        <time>2016-09-06T05:16:38Z</time>
      </trkpt>
      <trkpt lat="45.76051" lon="4.83053">
        <ele>166</ele>
        <time>2016-09-06T05:16:44Z</time>
      </trkpt>
      <trkpt lat="45.7606" lon="4.83062">
        <ele>164</ele>
        <time>2016-09-06T05:16:50Z</time>
      </trkpt>
      <trkpt lat="45.76069" lon="4.83071">
        <ele>163</ele>
        <time>2016-09-06T05:16:56Z</time>
      </trkpt>
      <trkpt lat="45.76079" lon="4.83076">
        <ele>163</ele>
        <time>2016-09-06T05:17:02Z</time>
      </trkpt>
      <trkpt lat="45.76088" lon="4.83079">
        <ele>162</ele>
        <time>2016-09-06T05:17:08Z</time>
      </trkpt>
      <trkpt lat="45.76098" lon="4.83081">
        <ele>163</ele>
        <time>2016-09-06T05:17:14Z</time>
      </trkpt>
      <trkpt lat="45.76113" lon="4.83087">
        <ele>164</ele>
        <time>2016-09-06T05:17:23Z</time>
      </trkpt>
      <trkpt lat="45.76118" lon="4.83088">
        <ele>164</ele>
        <time>2016-09-06T05:17:26Z</time>
      </trkpt>
      <trkpt lat="45.76128" lon="4.83091">
        <ele>165</ele>
        <time>2016-09-06T05:17:32Z</time>
      </trkpt>
      <trkpt lat="45.76145" lon="4.83091">
        <ele>165</ele>
        <time>2016-09-06T05:17:43Z</time>
      </trkpt>
      <trkpt lat="45.76147" lon="4.83092">
        <ele>166</ele>
        <time>2016-09-06T05:17:44Z</time>
      </trkpt>
      <trkpt lat="45.76156" lon="4.83098">
        <ele>165</ele>
        <time>2016-09-06T05:17:50Z</time>
      </trkpt>
      <trkpt lat="45.7617" lon="4.83102">
        <ele>163</ele>
        <time>2016-09-06T05:17:58Z</time>
      </trkpt>
      <trkpt lat="45.76177" lon="4.83106">
        <ele>163</ele>
        <time>2016-09-06T05:18:02Z</time>
      </trkpt>
      <trkpt lat="45.76187" lon="4.83108">
        <ele>163</ele>
        <time>2016-09-06T05:18:08Z</time>
      </trkpt>
      <trkpt lat="45.76203" lon="4.83114">
        <ele>162</ele>
        <time>2016-09-06T05:18:17Z</time>
      </trkpt>
      <trkpt lat="45.76216" lon="4.83117">
        <ele>163</ele>
        <time>2016-09-06T05:18:25Z</time>
      </trkpt>
      <trkpt lat="45.76219" lon="4.83118">
        <ele>162</ele>
        <time>2016-09-06T05:18:27Z</time>
      </trkpt>
      <trkpt lat="45.76232" lon="4.83121">
        <ele>161</ele>
        <time>2016-09-06T05:18:35Z</time>
      </trkpt>
      <trkpt lat="45.76236" lon="4.83123">
        <ele>160</ele>
        <time>2016-09-06T05:18:38Z</time>
      </trkpt>
      <trkpt lat="45.76246" lon="4.83123">
        <ele>159</ele>
        <time>2016-09-06T05:18:44Z</time>
      </trkpt>
      <trkpt lat="45.76261" lon="4.83129">
        <ele>157</ele>
        <time>2016-09-06T05:18:54Z</time>
      </trkpt>
      <trkpt lat="45.76265" lon="4.83129">
        <ele>157</ele>
        <time>2016-09-06T05:18:56Z</time>
      </trkpt>
      <trkpt lat="45.76282" lon="4.83133">
        <ele>157</ele>
        <time>2016-09-06T05:19:07Z</time>
      </trkpt>
      <trkpt lat="45.76288" lon="4.83133">
        <ele>158</ele>
        <time>2016-09-06T05:19:10Z</time>
      </trkpt>
      <trkpt lat="45.76296" lon="4.83133">
        <ele>159</ele>
        <time>2016-09-06T05:19:14Z</time>
      </trkpt>
      <trkpt lat="45.76307" lon="4.83133">
        <ele>158</ele>
        <time>2016-09-06T05:19:21Z</time>
      </trkpt>
      <trkpt lat="45.76315" lon="4.83135">
        <ele>162</ele>
        <time>2016-09-06T05:19:26Z</time>
      </trkpt>
      <trkpt lat="45.7633" lon="4.83143">
        <ele>161</ele>
        <time>2016-09-06T05:19:37Z</time>
      </trkpt>
      <trkpt lat="45.7634" lon="4.83135">
        <ele>163</ele>
        <time>2016-09-06T05:19:43Z</time>
      </trkpt>
      <trkpt lat="45.76346" lon="4.83133">
        <ele>163</ele>
        <time>2016-09-06T05:19:46Z</time>
      </trkpt>
      <trkpt lat="45.76355" lon="4.83132">
        <ele>163</ele>
        <time>2016-09-06T05:19:50Z</time>
      </trkpt>
      <trkpt lat="45.76365" lon="4.83132">
        <ele>161</ele>
        <time>2016-09-06T05:19:56Z</time>
      </trkpt>
      <trkpt lat="45.76381" lon="4.83132">
        <ele>158</ele>
        <time>2016-09-06T05:20:05Z</time>
      </trkpt>
      <trkpt lat="45.76385" lon="4.83131">
        <ele>157</ele>
        <time>2016-09-06T05:20:08Z</time>
      </trkpt>
      <trkpt lat="45.764" lon="4.8313">
        <ele>160</ele>
        <time>2016-09-06T05:20:17Z</time>
      </trkpt>
      <trkpt lat="45.76404" lon="4.83129">
        <ele>158</ele>
        <time>2016-09-06T05:20:20Z</time>
      </trkpt>
      <trkpt lat="45.76424" lon="4.83128">
        <ele>159</ele>
        <time>2016-09-06T05:20:30Z</time>
      </trkpt>
      <trkpt lat="45.76434" lon="4.83126">
        <ele>160</ele>
        <time>2016-09-06T05:20:35Z</time>
      </trkpt>
      <trkpt lat="45.7644" lon="4.83125">
        <ele>161</ele>
        <time>2016-09-06T05:20:38Z</time>
      </trkpt>
      <trkpt lat="45.76451" lon="4.83125">
        <ele>162</ele>
        <time>2016-09-06T05:20:44Z</time>
      </trkpt>
      <trkpt lat="45.76461" lon="4.83124">
        <ele>161</ele>
        <time>2016-09-06T05:20:50Z</time>
      </trkpt>
      <trkpt lat="45.7647" lon="4.83124">
        <ele>160</ele>
        <time>2016-09-06T05:20:56Z</time>
      </trkpt>
      <trkpt lat="45.76482" lon="4.83123">
        <ele>162</ele>
        <time>2016-09-06T05:21:03Z</time>
      </trkpt>
      <trkpt lat="45.76492" lon="4.83124">
        <ele>162</ele>
        <time>2016-09-06T05:21:09Z</time>
      </trkpt>
      <trkpt lat="45.765" lon="4.83125">
        <ele>163</ele>
        <time>2016-09-06T05:21:14Z</time>
      </trkpt>
      <trkpt lat="45.7651" lon="4.83126">
        <ele>163</ele>
        <time>2016-09-06T05:21:20Z</time>
      </trkpt>
      <trkpt lat="45.76521" lon="4.8312">
        <ele>164</ele>
        <time>2016-09-06T05:21:27Z</time>
      </trkpt>
      <trkpt lat="45.7653" lon="4.83115">
        <ele>163</ele>
        <time>2016-09-06T05:21:32Z</time>
      </trkpt>
      <trkpt lat="45.7654" lon="4.8311">
        <ele>164</ele>
        <time>2016-09-06T05:21:38Z</time>
      </trkpt>
      <trkpt lat="45.76549" lon="4.83102">
        <ele>163</ele>
        <time>2016-09-06T05:21:44Z</time>
      </trkpt>
      <trkpt lat="45.76561" lon="4.83091">
        <ele>164</ele>
        <time>2016-09-06T05:21:53Z</time>
      </trkpt>
      <trkpt lat="45.76566" lon="4.83087">
        <ele>164</ele>
        <time>2016-09-06T05:21:56Z</time>
      </trkpt>
      <trkpt lat="45.76573" lon="4.83076">
        <ele>164</ele>
        <time>2016-09-06T05:22:02Z</time>
      </trkpt>
      <trkpt lat="45.76587" lon="4.83062">
        <ele>164</ele>
        <time>2016-09-06T05:22:12Z</time>
      </trkpt>
      <trkpt lat="45.76592" lon="4.83059">
        <ele>164</ele>
        <time>2016-09-06T05:22:15Z</time>
      </trkpt>
      <trkpt lat="45.76605" lon="4.83047">
        <ele>165</ele>
        <time>2016-09-06T05:22:24Z</time>
      </trkpt>
      <trkpt lat="45.76607" lon="4.83044">
        <ele>165</ele>
        <time>2016-09-06T05:22:26Z</time>
      </trkpt>
      <trkpt lat="45.76623" lon="4.83034">
        <ele>164</ele>
        <time>2016-09-06T05:22:36Z</time>
      </trkpt>
      <trkpt lat="45.76626" lon="4.83032">
        <ele>163</ele>
        <time>2016-09-06T05:22:38Z</time>
      </trkpt>
      <trkpt lat="45.76636" lon="4.83025">
        <ele>164</ele>
        <time>2016-09-06T05:22:44Z</time>
      </trkpt>
      <trkpt lat="45.76648" lon="4.83013">
        <ele>164</ele>
        <time>2016-09-06T05:22:53Z</time>
      </trkpt>
      <trkpt lat="45.76652" lon="4.83009">
        <ele>164</ele>
        <time>2016-09-06T05:22:56Z</time>
      </trkpt>
      <trkpt lat="45.7666" lon="4.83001">
        <ele>163</ele>
        <time>2016-09-06T05:23:02Z</time>
      </trkpt>
      <trkpt lat="45.76668" lon="4.82998">
        <ele>161</ele>
        <time>2016-09-06T05:23:08Z</time>
      </trkpt>
      <trkpt lat="45.76683" lon="4.82984">
        <ele>163</ele>
        <time>2016-09-06T05:23:19Z</time>
      </trkpt>
      <trkpt lat="45.76688" lon="4.82975">
        <ele>162</ele>
        <time>2016-09-06T05:23:23Z</time>
      </trkpt>
      <trkpt lat="45.76691" lon="4.82971">
        <ele>160</ele>
        <time>2016-09-06T05:23:26Z</time>
      </trkpt>
      <trkpt lat="45.767" lon="4.82958">
        <ele>162</ele>
        <time>2016-09-06T05:23:33Z</time>
      </trkpt>
      <trkpt lat="45.76708" lon="4.82946">
        <ele>163</ele>
        <time>2016-09-06T05:23:40Z</time>
      </trkpt>
      <trkpt lat="45.76712" lon="4.82938">
        <ele>162</ele>
        <time>2016-09-06T05:23:44Z</time>
      </trkpt>
      <trkpt lat="45.76717" lon="4.82927">
        <ele>163</ele>
        <time>2016-09-06T05:23:50Z</time>
      </trkpt>
      <trkpt lat="45.76725" lon="4.82915">
        <ele>164</ele>
        <time>2016-09-06T05:23:57Z</time>
      </trkpt>
      <trkpt lat="45.76732" lon="4.82905">
        <ele>163</ele>
        <time>2016-09-06T05:24:03Z</time>
      </trkpt>
      <trkpt lat="45.76738" lon="4.82893">
        <ele>163</ele>
        <time>2016-09-06T05:24:09Z</time>
      </trkpt>
      <trkpt lat="45.76749" lon="4.82877">
        <ele>165</ele>
        <time>2016-09-06T05:24:19Z</time>
      </trkpt>
      <trkpt lat="45.76751" lon="4.82876">
        <ele>164</ele>
        <time>2016-09-06T05:24:20Z</time>
      </trkpt>
      <trkpt lat="45.76758" lon="4.82863">
        <ele>164</ele>
        <time>2016-09-06T05:24:26Z</time>
      </trkpt>
      <trkpt lat="45.76765" lon="4.82851">
        <ele>165</ele>
        <time>2016-09-06T05:24:32Z</time>
      </trkpt>
      <trkpt lat="45.76774" lon="4.8284">
        <ele>165</ele>
        <time>2016-09-06T05:24:39Z</time>
      </trkpt>
      <trkpt lat="45.76778" lon="4.82829">
        <ele>165</ele>
        <time>2016-09-06T05:24:44Z</time>
      </trkpt>
      <trkpt lat="45.76783" lon="4.82816">
        <ele>162</ele>
        <time>2016-09-06T05:24:50Z</time>
      </trkpt>
      <trkpt lat="45.76777" lon="4.82806">
        <ele>168</ele>
        <time>2016-09-06T05:25:01Z</time>
      </trkpt>
      <trkpt lat="45.76772" lon="4.82802">
        <ele>169</ele>
        <time>2016-09-06T05:25:03Z</time>
      </trkpt>
      <trkpt lat="45.76763" lon="4.82796">
        <ele>163</ele>
        <time>2016-09-06T05:25:08Z</time>
      </trkpt>
      <trkpt lat="45.76754" lon="4.82788">
        <ele>164</ele>
        <time>2016-09-06T05:25:14Z</time>
      </trkpt>
      <trkpt lat="45.76735" lon="4.82774">
        <ele>167</ele>
        <time>2016-09-06T05:25:25Z</time>
      </trkpt>
      <trkpt lat="45.76731" lon="4.8277">
        <ele>165</ele>
        <time>2016-09-06T05:25:28Z</time>
      </trkpt>
      <trkpt lat="45.76724" lon="4.82765">
        <ele>166</ele>
        <time>2016-09-06T05:25:34Z</time>
      </trkpt>
      <trkpt lat="45.76721" lon="4.82765">
        <ele>165</ele>
        <time>2016-09-06T05:25:38Z</time>
      </trkpt>
      <trkpt lat="45.76709" lon="4.8276">
        <ele>168</ele>
        <time>2016-09-06T05:25:45Z</time>
      </trkpt>
      <trkpt lat="45.76697" lon="4.82767">
        <ele>168</ele>
        <time>2016-09-06T05:25:54Z</time>
      </trkpt>
      <trkpt lat="45.76694" lon="4.82771">
        <ele>168</ele>
        <time>2016-09-06T05:25:56Z</time>
      </trkpt>
      <trkpt lat="45.76687" lon="4.82783">
        <ele>171</ele>
        <time>2016-09-06T05:26:02Z</time>
      </trkpt>
      <trkpt lat="45.76679" lon="4.82789">
        <ele>169</ele>
        <time>2016-09-06T05:26:08Z</time>
      </trkpt>
      <trkpt lat="45.76669" lon="4.82785">
        <ele>169</ele>
        <time>2016-09-06T05:26:14Z</time>
      </trkpt>
      <trkpt lat="45.76662" lon="4.82776">
        <ele>168</ele>
        <time>2016-09-06T05:26:20Z</time>
      </trkpt>
      <trkpt lat="45.76652" lon="4.82754">
        <ele>169</ele>
        <time>2016-09-06T05:26:29Z</time>
      </trkpt>
      <trkpt lat="45.76651" lon="4.82746">
        <ele>170</ele>
        <time>2016-09-06T05:26:33Z</time>
      </trkpt>
      <trkpt lat="45.76642" lon="4.82744">
        <ele>174</ele>
        <time>2016-09-06T05:26:38Z</time>
      </trkpt>
      <trkpt lat="45.76623" lon="4.82734">
        <ele>188</ele>
        <time>2016-09-06T05:26:49Z</time>
      </trkpt>
      <trkpt lat="45.76615" lon="4.82741">
        <ele>192</ele>
        <time>2016-09-06T05:26:54Z</time>
      </trkpt>
      <trkpt lat="45.76605" lon="4.82733">
        <ele>193</ele>
        <time>2016-09-06T05:27:01Z</time>
      </trkpt>
      <trkpt lat="45.76601" lon="4.82728">
        <ele>191</ele>
        <time>2016-09-06T05:27:04Z</time>
      </trkpt>
      <trkpt lat="45.76596" lon="4.82723">
        <ele>189</ele>
        <time>2016-09-06T05:27:08Z</time>
      </trkpt>
      <trkpt lat="45.76588" lon="4.82722">
        <ele>184</ele>
        <time>2016-09-06T05:27:14Z</time>
      </trkpt>
      <trkpt lat="45.76592" lon="4.82709">
        <ele>182</ele>
        <time>2016-09-06T05:27:20Z</time>
      </trkpt>
      <trkpt lat="45.76593" lon="4.82684">
        <ele>184</ele>
        <time>2016-09-06T05:27:30Z</time>
      </trkpt>
      <trkpt lat="45.7659" lon="4.82676">
        <ele>183</ele>
        <time>2016-09-06T05:27:34Z</time>
      </trkpt>
      <trkpt lat="45.76583" lon="4.82673">
        <ele>181</ele>
        <time>2016-09-06T05:27:38Z</time>
      </trkpt>
      <trkpt lat="45.76573" lon="4.82671">
        <ele>185</ele>
        <time>2016-09-06T05:27:44Z</time>
      </trkpt>
      <trkpt lat="45.76556" lon="4.82673">
        <ele>187</ele>
        <time>2016-09-06T05:27:53Z</time>
      </trkpt>
      <trkpt lat="45.76552" lon="4.82677">
        <ele>190</ele>
        <time>2016-09-06T05:27:56Z</time>
      </trkpt>
      <trkpt lat="45.76541" lon="4.82689">
        <ele>189</ele>
        <time>2016-09-06T05:28:02Z</time>
      </trkpt>
      <trkpt lat="45.7653" lon="4.82684">
        <ele>192</ele>
        <time>2016-09-06T05:28:08Z</time>
      </trkpt>
      <trkpt lat="45.76501" lon="4.82683">
        <ele>190</ele>
        <time>2016-09-06T05:28:21Z</time>
      </trkpt>
      <trkpt lat="45.76495" lon="4.82685">
        <ele>179</ele>
        <time>2016-09-06T05:28:25Z</time>
      </trkpt>
      <trkpt lat="45.76496" lon="4.82673">
        <ele>180</ele>
        <time>2016-09-06T05:28:29Z</time>
      </trkpt>
      <trkpt lat="45.76489" lon="4.82662">
        <ele>179</ele>
        <time>2016-09-06T05:28:37Z</time>
      </trkpt>
      <trkpt lat="45.76474" lon="4.82651">
        <ele>189</ele>
        <time>2016-09-06T05:28:45Z</time>
      </trkpt>
      <trkpt lat="45.76472" lon="4.8265">
        <ele>193</ele>
        <time>2016-09-06T05:28:46Z</time>
      </trkpt>
      <trkpt lat="45.76452" lon="4.82639">
        <ele>198</ele>
        <time>2016-09-06T05:28:57Z</time>
      </trkpt>
      <trkpt lat="45.7645" lon="4.8264">
        <ele>198</ele>
        <time>2016-09-06T05:28:58Z</time>
      </trkpt>
      <trkpt lat="45.76431" lon="4.82641">
        <ele>194</ele>
        <time>2016-09-06T05:29:10Z</time>
      </trkpt>
      <trkpt lat="45.76426" lon="4.82642">
        <ele>198</ele>
        <time>2016-09-06T05:29:13Z</time>
      </trkpt>
      <trkpt lat="45.76411" lon="4.82643">
        <ele>197</ele>
        <time>2016-09-06T05:29:22Z</time>
      </trkpt>
      <trkpt lat="45.76409" lon="4.82643">
        <ele>198</ele>
        <time>2016-09-06T05:29:23Z</time>
      </trkpt>
      <trkpt lat="45.76398" lon="4.8264">
        <ele>198</ele>
        <time>2016-09-06T05:29:29Z</time>
      </trkpt>
      <trkpt lat="45.76388" lon="4.82632">
        <ele>206</ele>
        <time>2016-09-06T05:29:35Z</time>
      </trkpt>
      <trkpt lat="45.76378" lon="4.8262">
        <ele>210</ele>
        <time>2016-09-06T05:29:41Z</time>
      </trkpt>
      <trkpt lat="45.76358" lon="4.82613">
        <ele>203</ele>
        <time>2016-09-06T05:29:51Z</time>
      </trkpt>
      <trkpt lat="45.76352" lon="4.82606">
        <ele>204</ele>
        <time>2016-09-06T05:29:55Z</time>
      </trkpt>
      <trkpt lat="45.76348" lon="4.82606">
        <ele>203</ele>
        <time>2016-09-06T05:29:59Z</time>
      </trkpt>
      <trkpt lat="45.76343" lon="4.82598">
        <ele>198</ele>
        <time>2016-09-06T05:30:05Z</time>
      </trkpt>
      <trkpt lat="45.76337" lon="4.82588">
        <ele>204</ele>
        <time>2016-09-06T05:30:11Z</time>
      </trkpt>
      <trkpt lat="45.76329" lon="4.82579">
        <ele>209</ele>
        <time>2016-09-06T05:30:17Z</time>
      </trkpt>
      <trkpt lat="45.76317" lon="4.82568">
        <ele>215</ele>
        <time>2016-09-06T05:30:26Z</time>
      </trkpt>
      <trkpt lat="45.76314" lon="4.82564">
        <ele>213</ele>
        <time>2016-09-06T05:30:29Z</time>
      </trkpt>
      <trkpt lat="45.76304" lon="4.82556">
        <ele>214</ele>
        <time>2016-09-06T05:30:35Z</time>
      </trkpt>
      <trkpt lat="45.76293" lon="4.82545">
        <ele>220</ele>
        <time>2016-09-06T05:30:44Z</time>
      </trkpt>
      <trkpt lat="45.76288" lon="4.82544">
        <ele>225</ele>
        <time>2016-09-06T05:30:47Z</time>
      </trkpt>
      <trkpt lat="45.76281" lon="4.82536">
        <ele>227</ele>
        <time>2016-09-06T05:30:53Z</time>
      </trkpt>
      <trkpt lat="45.76271" lon="4.82525">
        <ele>226</ele>
        <time>2016-09-06T05:31:02Z</time>
      </trkpt>
      <trkpt lat="45.76264" lon="4.82515">
        <ele>228</ele>
        <time>2016-09-06T05:31:07Z</time>
      </trkpt>
      <trkpt lat="45.76254" lon="4.82509">
        <ele>233</ele>
        <time>2016-09-06T05:31:13Z</time>
      </trkpt>
      <trkpt lat="45.76246" lon="4.82501">
        <ele>235</ele>
        <time>2016-09-06T05:31:20Z</time>
      </trkpt>
      <trkpt lat="45.76239" lon="4.82491">
        <ele>235</ele>
        <time>2016-09-06T05:31:26Z</time>
      </trkpt>
      <trkpt lat="45.76236" lon="4.82486">
        <ele>234</ele>
        <time>2016-09-06T05:31:29Z</time>
      </trkpt>
      <trkpt lat="45.76229" lon="4.82475">
        <ele>235</ele>
        <time>2016-09-06T05:31:35Z</time>
      </trkpt>
      <trkpt lat="45.76224" lon="4.82466">
        <ele>227</ele>
        <time>2016-09-06T05:31:41Z</time>
      </trkpt>
      <trkpt lat="45.76221" lon="4.82456">
        <ele>225</ele>
        <time>2016-09-06T05:31:47Z</time>
      </trkpt>
      <trkpt lat="45.76219" lon="4.82444">
        <ele>223</ele>
        <time>2016-09-06T05:31:53Z</time>
      </trkpt>
      <trkpt lat="45.76216" lon="4.82438">
        <ele>224</ele>
        <time>2016-09-06T05:31:59Z</time>
      </trkpt>
      <trkpt lat="45.76206" lon="4.82428">
        <ele>228</ele>
        <time>2016-09-06T05:32:08Z</time>
      </trkpt>
      <trkpt lat="45.76202" lon="4.82424">
        <ele>230</ele>
        <time>2016-09-06T05:32:11Z</time>
      </trkpt>
      <trkpt lat="45.76194" lon="4.82416">
        <ele>233</ele>
        <time>2016-09-06T05:32:18Z</time>
      </trkpt>
      <trkpt lat="45.76182" lon="4.82411">
        <ele>231</ele>
        <time>2016-09-06T05:32:26Z</time>
      </trkpt>
      <trkpt lat="45.76177" lon="4.82408">
        <ele>233</ele>
        <time>2016-09-06T05:32:30Z</time>
      </trkpt>
      <trkpt lat="45.76171" lon="4.82403">
        <ele>233</ele>
        <time>2016-09-06T05:32:35Z</time>
      </trkpt>
      <trkpt lat="45.76162" lon="4.82398">
        <ele>231</ele>
        <time>2016-09-06T05:32:41Z</time>
      </trkpt>
      <trkpt lat="45.7615" lon="4.82399">
        <ele>238</ele>
        <time>2016-09-06T05:32:48Z</time>
      </trkpt>
      <trkpt lat="45.76141" lon="4.82403">
        <ele>239</ele>
        <time>2016-09-06T05:32:53Z</time>
      </trkpt>
      <trkpt lat="45.76122" lon="4.824">
        <ele>249</ele>
        <time>2016-09-06T05:33:04Z</time>
      </trkpt>
      <trkpt lat="45.7612" lon="4.824">
        <ele>251</ele>
        <time>2016-09-06T05:33:05Z</time>
      </trkpt>
      <trkpt lat="45.76109" lon="4.82398">
        <ele>255</ele>
        <time>2016-09-06T05:33:11Z</time>
      </trkpt>
      <trkpt lat="45.76098" lon="4.82394">
        <ele>254</ele>
        <time>2016-09-06T05:33:17Z</time>
      </trkpt>
      <trkpt lat="45.76093" lon="4.82382">
        <ele>249</ele>
        <time>2016-09-06T05:33:23Z</time>
      </trkpt>
      <trkpt lat="45.76086" lon="4.82375">
        <ele>255</ele>
        <time>2016-09-06T05:33:29Z</time>
      </trkpt>
      <trkpt lat="45.76083" lon="4.82365">
        <ele>251</ele>
        <time>2016-09-06T05:33:35Z</time>
      </trkpt>
      <trkpt lat="45.76076" lon="4.82358">
        <ele>252</ele>
        <time>2016-09-06T05:33:41Z</time>
      </trkpt>
      <trkpt lat="45.76064" lon="4.82357">
        <ele>259</ele>
        <time>2016-09-06T05:33:47Z</time>
      </trkpt>
      <trkpt lat="45.76049" lon="4.82366">
        <ele>260</ele>
        <time>2016-09-06T05:33:53Z</time>
      </trkpt>
      <trkpt lat="45.76033" lon="4.82355">
        <ele>263</ele>
        <time>2016-09-06T05:34:02Z</time>
      </trkpt>
      <trkpt lat="45.76027" lon="4.82342">
        <ele>264</ele>
        <time>2016-09-06T05:34:09Z</time>
      </trkpt>
      <trkpt lat="45.76027" lon="4.82337">
        <ele>265</ele>
        <time>2016-09-06T05:34:11Z</time>
      </trkpt>
      <trkpt lat="45.76019" lon="4.82316">
        <ele>270</ele>
        <time>2016-09-06T05:34:21Z</time>
      </trkpt>
      <trkpt lat="45.76013" lon="4.82309">
        <ele>277</ele>
        <time>2016-09-06T05:34:26Z</time>
      </trkpt>
      <trkpt lat="45.76019" lon="4.82289">
        <ele>272</ele>
        <time>2016-09-06T05:34:34Z</time>
      </trkpt>
      <trkpt lat="45.76024" lon="4.82282">
        <ele>273</ele>
        <time>2016-09-06T05:34:40Z</time>
      </trkpt>
      <trkpt lat="45.76027" lon="4.82273">
        <ele>275</ele>
        <time>2016-09-06T05:34:47Z</time>
      </trkpt>
      <trkpt lat="45.76027" lon="4.82271">
        <ele>275</ele>
        <time>2016-09-06T05:34:48Z</time>
      </trkpt>
      <trkpt lat="45.76032" lon="4.82267">
        <ele>274</ele>
        <time>2016-09-06T05:34:54Z</time>
      </trkpt>
      <trkpt lat="45.76035" lon="4.82253">
        <ele>274</ele>
        <time>2016-09-06T05:35:01Z</time>
      </trkpt>
      <trkpt lat="45.76034" lon="4.82227">
        <ele>277</ele>
        <time>2016-09-06T05:35:11Z</time>
      </trkpt>
      <trkpt lat="45.76034" lon="4.82223">
        <ele>278</ele>
        <time>2016-09-06T05:35:13Z</time>
      </trkpt>
      <trkpt lat="45.76034" lon="4.8221">
        <ele>276</ele>
        <time>2016-09-06T05:35:18Z</time>
      </trkpt>
      <trkpt lat="45.76037" lon="4.82197">
        <ele>273</ele>
        <time>2016-09-06T05:35:24Z</time>
      </trkpt>
      <trkpt lat="45.76046" lon="4.82192">
        <ele>275</ele>
        <time>2016-09-06T05:35:30Z</time>
      </trkpt>
      <trkpt lat="45.76055" lon="4.82198">
        <ele>278</ele>
        <time>2016-09-06T05:35:36Z</time>
      </trkpt>
      <trkpt lat="45.76068" lon="4.82198">
        <ele>286</ele>
        <time>2016-09-06T05:35:45Z</time>
      </trkpt>
      <trkpt lat="45.7608" lon="4.82203">
        <ele>288</ele>
        <time>2016-09-06T05:35:52Z</time>
      </trkpt>
      <trkpt lat="45.76083" lon="4.82205">
        <ele>286</ele>
        <time>2016-09-06T05:35:54Z</time>
      </trkpt>
      <trkpt lat="45.76093" lon="4.82211">
        <ele>290</ele>
        <time>2016-09-06T05:36:00Z</time>
      </trkpt>
      <trkpt lat="45.76103" lon="4.82213">
        <ele>291</ele>
        <time>2016-09-06T05:36:06Z</time>
      </trkpt>
      <trkpt lat="45.76118" lon="4.82207">
        <ele>294</ele>
        <time>2016-09-06T05:36:17Z</time>
      </trkpt>
      <trkpt lat="45.76126" lon="4.82212">
        <ele>297</ele>
        <time>2016-09-06T05:36:23Z</time>
      </trkpt>
      <trkpt lat="45.76128" lon="4.82215">
        <ele>297</ele>
        <time>2016-09-06T05:36:24Z</time>
      </trkpt>
      <trkpt lat="45.76139" lon="4.82213">
        <ele>295</ele>
        <time>2016-09-06T05:36:33Z</time>
      </trkpt>
      <trkpt lat="45.76146" lon="4.8221">
        <ele>297</ele>
        <time>2016-09-06T05:36:38Z</time>
      </trkpt>
      <trkpt lat="45.76152" lon="4.82206">
        <ele>298</ele>
        <time>2016-09-06T05:36:42Z</time>
      </trkpt>
      <trkpt lat="45.76161" lon="4.82198">
        <ele>301</ele>
        <time>2016-09-06T05:36:49Z</time>
      </trkpt>
      <trkpt lat="45.7617" lon="4.82199">
        <ele>299</ele>
        <time>2016-09-06T05:36:54Z</time>
      </trkpt>
      <trkpt lat="45.76179" lon="4.82202">
        <ele>301</ele>
        <time>2016-09-06T05:37:00Z</time>
      </trkpt>
      <trkpt lat="45.7619" lon="4.82207">
        <ele>293</ele>
        <time>2016-09-06T05:37:08Z</time>
      </trkpt>
      <trkpt lat="45.76201" lon="4.822">
        <ele>294</ele>
        <time>2016-09-06T05:37:14Z</time>
      </trkpt>
      <trkpt lat="45.76202" lon="4.8219">
        <ele>296</ele>
        <time>2016-09-06T05:37:18Z</time>
      </trkpt>
      <trkpt lat="45.76205" lon="4.82176">
        <ele>296</ele>
        <time>2016-09-06T05:37:24Z</time>
      </trkpt>
      <trkpt lat="45.76206" lon="4.82159">
        <ele>297</ele>
        <time>2016-09-06T05:37:31Z</time>
      </trkpt>
      <trkpt lat="45.76214" lon="4.82152">
        <ele>298</ele>
        <time>2016-09-06T05:37:36Z</time>
      </trkpt>
      <trkpt lat="45.76223" lon="4.82156">
        <ele>299</ele>
        <time>2016-09-06T05:37:42Z</time>
      </trkpt>
      <trkpt lat="45.76233" lon="4.82157">
        <ele>302</ele>
        <time>2016-09-06T05:37:48Z</time>
      </trkpt>
      <trkpt lat="45.76243" lon="4.82161">
        <ele>299</ele>
        <time>2016-09-06T05:37:54Z</time>
      </trkpt>
      <trkpt lat="45.76253" lon="4.82162">
        <ele>299</ele>
        <time>2016-09-06T05:38:00Z</time>
      </trkpt>
      <trkpt lat="45.76264" lon="4.82176">
        <ele>299</ele>
        <time>2016-09-06T05:38:10Z</time>
      </trkpt>
      <trkpt lat="45.76265" lon="4.82181">
        <ele>301</ele>
        <time>2016-09-06T05:38:12Z</time>
      </trkpt>
      <trkpt lat="45.76267" lon="4.82201">
        <ele>300</ele>
        <time>2016-09-06T05:38:21Z</time>
      </trkpt>
      <trkpt lat="45.76271" lon="4.82207">
        <ele>297</ele>
        <time>2016-09-06T05:38:24Z</time>
      </trkpt>
      <trkpt lat="45.76283" lon="4.82212">
        <ele>303</ele>
        <time>2016-09-06T05:38:31Z</time>
      </trkpt>
      <trkpt lat="45.76292" lon="4.82216">
        <ele>304</ele>
        <time>2016-09-06T05:38:37Z</time>
      </trkpt>
      <trkpt lat="45.76302" lon="4.82216">
        <ele>305</ele>
        <time>2016-09-06T05:38:43Z</time>
      </trkpt>
      <trkpt lat="45.76318" lon="4.82218">
        <ele>302</ele>
        <time>2016-09-06T05:38:52Z</time>
      </trkpt>
      <trkpt lat="45.76321" lon="4.82218">
        <ele>301</ele>
        <time>2016-09-06T05:38:54Z</time>
      </trkpt>
      <trkpt lat="45.76336" lon="4.82217">
        <ele>303</ele>
        <time>2016-09-06T05:39:04Z</time>
      </trkpt>
      <trkpt lat="45.76347" lon="4.8222">
        <ele>301</ele>
        <time>2016-09-06T05:39:11Z</time>
      </trkpt>
      <trkpt lat="45.7635" lon="4.8222">
        <ele>298</ele>
        <time>2016-09-06T05:39:13Z</time>
      </trkpt>
      <trkpt lat="45.76356" lon="4.82215">
        <ele>295</ele>
        <time>2016-09-06T05:39:18Z</time>
      </trkpt>
      <trkpt lat="45.76358" lon="4.82194">
        <ele>291</ele>
        <time>2016-09-06T05:39:27Z</time>
      </trkpt>
      <trkpt lat="45.76352" lon="4.82175">
        <ele>291</ele>
        <time>2016-09-06T05:39:35Z</time>
      </trkpt>
      <trkpt lat="45.7635" lon="4.82173">
        <ele>292</ele>
        <time>2016-09-06T05:39:36Z</time>
      </trkpt>
      <trkpt lat="45.76346" lon="4.82159">
        <ele>289</ele>
        <time>2016-09-06T05:39:42Z</time>
      </trkpt>
      <trkpt lat="45.76333" lon="4.82147">
        <ele>294</ele>
        <time>2016-09-06T05:39:51Z</time>
      </trkpt>
      <trkpt lat="45.76326" lon="4.82135">
        <ele>295</ele>
        <time>2016-09-06T05:39:57Z</time>
      </trkpt>
      <trkpt lat="45.76324" lon="4.82128">
        <ele>295</ele>
        <time>2016-09-06T05:40:00Z</time>
      </trkpt>
      <trkpt lat="45.76321" lon="4.82115">
        <ele>293</ele>
        <time>2016-09-06T05:40:06Z</time>
      </trkpt>
      <trkpt lat="45.76314" lon="4.82087">
        <ele>294</ele>
        <time>2016-09-06T05:40:17Z</time>
      </trkpt>
      <trkpt lat="45.76313" lon="4.82076">
        <ele>293</ele>
        <time>2016-09-06T05:40:21Z</time>
      </trkpt>
      <trkpt lat="45.76311" lon="4.82069">
        <ele>292</ele>
        <time>2016-09-06T05:40:24Z</time>
      </trkpt>
      <trkpt lat="45.76308" lon="4.82054">
        <ele>292</ele>
        <time>2016-09-06T05:40:30Z</time>
      </trkpt>
      <trkpt lat="45.76306" lon="4.82037">
        <ele>289</ele>
        <time>2016-09-06T05:40:41Z</time>
      </trkpt>
      <trkpt lat="45.76305" lon="4.82032">
        <ele>288</ele>
        <time>2016-09-06T05:40:43Z</time>
      </trkpt>
      <trkpt lat="45.76301" lon="4.82017">
        <ele>286</ele>
        <time>2016-09-06T05:40:48Z</time>
      </trkpt>
      <trkpt lat="45.763" lon="4.81988">
        <ele>288</ele>
        <time>2016-09-06T05:40:59Z</time>
      </trkpt>
      <trkpt lat="45.763" lon="4.81985">
        <ele>287</ele>
        <time>2016-09-06T05:41:00Z</time>
      </trkpt>
      <trkpt lat="45.76306" lon="4.81968">
        <ele>284</ele>
        <time>2016-09-06T05:41:07Z</time>
      </trkpt>
      <trkpt lat="45.76307" lon="4.81956">
        <ele>285</ele>
        <time>2016-09-06T05:41:12Z</time>
      </trkpt>
      <trkpt lat="45.76314" lon="4.81936">
        <ele>284</ele>
        <time>2016-09-06T05:41:21Z</time>
      </trkpt>
      <trkpt lat="45.76316" lon="4.8193">
        <ele>283</ele>
        <time>2016-09-06T05:41:24Z</time>
      </trkpt>
      <trkpt lat="45.76321" lon="4.81914">
        <ele>283</ele>
        <time>2016-09-06T05:41:31Z</time>
      </trkpt>
      <trkpt lat="45.76323" lon="4.81903">
        <ele>283</ele>
        <time>2016-09-06T05:41:36Z</time>
      </trkpt>
      <trkpt lat="45.76326" lon="4.81891">
        <ele>280</ele>
        <time>2016-09-06T05:41:42Z</time>
      </trkpt>
      <trkpt lat="45.76331" lon="4.81867">
        <ele>286</ele>
        <time>2016-09-06T05:41:52Z</time>
      </trkpt>
      <trkpt lat="45.76331" lon="4.81863">
        <ele>284</ele>
        <time>2016-09-06T05:41:54Z</time>
      </trkpt>
      <trkpt lat="45.76333" lon="4.81848">
        <ele>287</ele>
        <time>2016-09-06T05:42:00Z</time>
      </trkpt>
      <trkpt lat="45.76331" lon="4.81834">
        <ele>286</ele>
        <time>2016-09-06T05:42:06Z</time>
      </trkpt>
      <trkpt lat="45.76332" lon="4.81821">
        <ele>286</ele>
        <time>2016-09-06T05:42:12Z</time>
      </trkpt>
      <trkpt lat="45.76329" lon="4.81807">
        <ele>289</ele>
        <time>2016-09-06T05:42:18Z</time>
      </trkpt>
      <trkpt lat="45.76327" lon="4.8179">
        <ele>288</ele>
        <time>2016-09-06T05:42:26Z</time>
      </trkpt>
      <trkpt lat="45.76331" lon="4.81767">
        <ele>290</ele>
        <time>2016-09-06T05:42:35Z</time>
      </trkpt>
      <trkpt lat="45.76331" lon="4.81765">
        <ele>290</ele>
        <time>2016-09-06T05:42:36Z</time>
      </trkpt>
      <trkpt lat="45.76335" lon="4.81751">
        <ele>291</ele>
        <time>2016-09-06T05:42:43Z</time>
      </trkpt>
      <trkpt lat="45.7633" lon="4.81727">
        <ele>290</ele>
        <time>2016-09-06T05:42:53Z</time>
      </trkpt>
      <trkpt lat="45.7633" lon="4.81722">
        <ele>288</ele>
        <time>2016-09-06T05:42:55Z</time>
      </trkpt>
      <trkpt lat="45.76326" lon="4.81698">
        <ele>289</ele>
        <time>2016-09-06T05:43:06Z</time>
      </trkpt>
      <trkpt lat="45.76325" lon="4.81696">
        <ele>288</ele>
        <time>2016-09-06T05:43:07Z</time>
      </trkpt>
      <trkpt lat="45.76324" lon="4.81682">
        <ele>284</ele>
        <time>2016-09-06T05:43:13Z</time>
      </trkpt>
      <trkpt lat="45.76315" lon="4.81665">
        <ele>286</ele>
        <time>2016-09-06T05:43:23Z</time>
      </trkpt>
      <trkpt lat="45.76315" lon="4.81661">
        <ele>284</ele>
        <time>2016-09-06T05:43:25Z</time>
      </trkpt>
      <trkpt lat="45.76313" lon="4.81648">
        <ele>288</ele>
        <time>2016-09-06T05:43:31Z</time>
      </trkpt>
      <trkpt lat="45.76309" lon="4.81631">
        <ele>285</ele>
        <time>2016-09-06T05:43:38Z</time>
      </trkpt>
      <trkpt lat="45.76308" lon="4.81601">
        <ele>288</ele>
        <time>2016-09-06T05:43:48Z</time>
      </trkpt>
      <trkpt lat="45.76306" lon="4.81594">
        <ele>286</ele>
        <time>2016-09-06T05:43:51Z</time>
      </trkpt>
      <trkpt lat="45.76306" lon="4.81579">
        <ele>288</ele>
        <time>2016-09-06T05:43:58Z</time>
      </trkpt>
      <trkpt lat="45.76306" lon="4.81574">
        <ele>288</ele>
        <time>2016-09-06T05:44:01Z</time>
      </trkpt>
      <trkpt lat="45.76307" lon="4.81552">
        <ele>291</ele>
        <time>2016-09-06T05:44:10Z</time>
      </trkpt>
      <trkpt lat="45.76308" lon="4.81541">
        <ele>292</ele>
        <time>2016-09-06T05:44:14Z</time>
      </trkpt>
      <trkpt lat="45.76308" lon="4.8153">
        <ele>289</ele>
        <time>2016-09-06T05:44:19Z</time>
      </trkpt>
      <trkpt lat="45.76304" lon="4.81507">
        <ele>291</ele>
        <time>2016-09-06T05:44:28Z</time>
      </trkpt>
      <trkpt lat="45.76307" lon="4.8149">
        <ele>291</ele>
        <time>2016-09-06T05:44:34Z</time>
      </trkpt>
      <trkpt lat="45.76305" lon="4.81484">
        <ele>290</ele>
        <time>2016-09-06T05:44:37Z</time>
      </trkpt>
      <trkpt lat="45.76299" lon="4.81464">
        <ele>295</ele>
        <time>2016-09-06T05:44:46Z</time>
      </trkpt>
      <trkpt lat="45.76292" lon="4.81447">
        <ele>297</ele>
        <time>2016-09-06T05:44:54Z</time>
      </trkpt>
      <trkpt lat="45.76292" lon="4.81445">
        <ele>296</ele>
        <time>2016-09-06T05:44:55Z</time>
      </trkpt>
      <trkpt lat="45.76294" lon="4.81427">
        <ele>289</ele>
        <time>2016-09-06T05:45:03Z</time>
      </trkpt>
      <trkpt lat="45.76299" lon="4.81421">
        <ele>290</ele>
        <time>2016-09-06T05:45:07Z</time>
      </trkpt>
      <trkpt lat="45.76304" lon="4.81408">
        <ele>290</ele>
        <time>2016-09-06T05:45:14Z</time>
      </trkpt>
      <trkpt lat="45.76303" lon="4.81389">
        <ele>294</ele>
        <time>2016-09-06T05:45:23Z</time>
      </trkpt>
      <trkpt lat="45.76301" lon="4.81375">
        <ele>293</ele>
        <time>2016-09-06T05:45:29Z</time>
      </trkpt>
      <trkpt lat="45.76301" lon="4.8137">
        <ele>290</ele>
        <time>2016-09-06T05:45:31Z</time>
      </trkpt>
      <trkpt lat="45.76299" lon="4.81347">
        <ele>289</ele>
        <time>2016-09-06T05:45:40Z</time>
      </trkpt>
      <trkpt lat="45.76306" lon="4.81338">
        <ele>290</ele>
        <time>2016-09-06T05:45:47Z</time>
      </trkpt>
      <trkpt lat="45.76309" lon="4.81336">
        <ele>286</ele>
        <time>2016-09-06T05:45:49Z</time>
      </trkpt>
      <trkpt lat="45.76316" lon="4.8132">
        <ele>290</ele>
        <time>2016-09-06T05:45:58Z</time>
      </trkpt>
      <trkpt lat="45.76325" lon="4.81321">
        <ele>289</ele>
        <time>2016-09-06T05:46:03Z</time>
      </trkpt>
      <trkpt lat="45.76332" lon="4.81325">
        <ele>284</ele>
        <time>2016-09-06T05:46:07Z</time>
      </trkpt>
      <trkpt lat="45.76343" lon="4.8133">
        <ele>282</ele>
        <time>2016-09-06T05:46:13Z</time>
      </trkpt>
      <trkpt lat="45.76355" lon="4.81336">
        <ele>282</ele>
        <time>2016-09-06T05:46:20Z</time>
      </trkpt>
      <trkpt lat="45.76364" lon="4.81337">
        <ele>282</ele>
        <time>2016-09-06T05:46:25Z</time>
      </trkpt>
      <trkpt lat="45.76374" lon="4.81333">
        <ele>282</ele>
        <time>2016-09-06T05:46:31Z</time>
      </trkpt>
      <trkpt lat="45.76382" lon="4.81324">
        <ele>281</ele>
        <time>2016-09-06T05:46:37Z</time>
      </trkpt>
      <trkpt lat="45.76392" lon="4.8131">
        <ele>277</ele>
        <time>2016-09-06T05:46:45Z</time>
      </trkpt>
      <trkpt lat="45.76397" lon="4.81301">
        <ele>278</ele>
        <time>2016-09-06T05:46:50Z</time>
      </trkpt>
      <trkpt lat="45.76406" lon="4.81292">
        <ele>277</ele>
        <time>2016-09-06T05:46:56Z</time>
      </trkpt>
      <trkpt lat="45.7642" lon="4.81285">
        <ele>275</ele>
        <time>2016-09-06T05:47:05Z</time>
      </trkpt>
      <trkpt lat="45.76424" lon="4.81281">
        <ele>274</ele>
        <time>2016-09-06T05:47:08Z</time>
      </trkpt>
      <trkpt lat="45.76438" lon="4.81266">
        <ele>269</ele>
        <time>2016-09-06T05:47:18Z</time>
      </trkpt>
      <trkpt lat="45.76439" lon="4.81263">
        <ele>270</ele>
        <time>2016-09-06T05:47:19Z</time>
      </trkpt>
      <trkpt lat="45.76447" lon="4.81254">
        <ele>270</ele>
        <time>2016-09-06T05:47:25Z</time>
      </trkpt>
      <trkpt lat="45.76453" lon="4.81244">
        <ele>269</ele>
        <time>2016-09-06T05:47:31Z</time>
      </trkpt>
      <trkpt lat="45.76461" lon="4.81235">
        <ele>269</ele>
        <time>2016-09-06T05:47:37Z</time>
      </trkpt>
      <trkpt lat="45.7647" lon="4.81222">
        <ele>271</ele>
        <time>2016-09-06T05:47:44Z</time>
      </trkpt>
      <trkpt lat="45.76476" lon="4.81211">
        <ele>271</ele>
        <time>2016-09-06T05:47:50Z</time>
      </trkpt>
      <trkpt lat="45.76486" lon="4.81189">
        <ele>274</ele>
        <time>2016-09-06T05:48:00Z</time>
      </trkpt>
      <trkpt lat="45.76486" lon="4.81186">
        <ele>273</ele>
        <time>2016-09-06T05:48:01Z</time>
      </trkpt>
      <trkpt lat="45.76489" lon="4.81166">
        <ele>272</ele>
        <time>2016-09-06T05:48:09Z</time>
      </trkpt>
      <trkpt lat="45.76491" lon="4.8116">
        <ele>269</ele>
        <time>2016-09-06T05:48:13Z</time>
      </trkpt>
      <trkpt lat="45.76496" lon="4.8115">
        <ele>267</ele>
        <time>2016-09-06T05:48:19Z</time>
      </trkpt>
      <trkpt lat="45.76501" lon="4.8113">
        <ele>270</ele>
        <time>2016-09-06T05:48:29Z</time>
      </trkpt>
      <trkpt lat="45.76504" lon="4.81126">
        <ele>269</ele>
        <time>2016-09-06T05:48:31Z</time>
      </trkpt>
      <trkpt lat="45.76511" lon="4.81116">
        <ele>272</ele>
        <time>2016-09-06T05:48:37Z</time>
      </trkpt>
      <trkpt lat="45.76516" lon="4.81092">
        <ele>269</ele>
        <time>2016-09-06T05:48:47Z</time>
      </trkpt>
      <trkpt lat="45.76517" lon="4.81089">
        <ele>268</ele>
        <time>2016-09-06T05:48:49Z</time>
      </trkpt>
      <trkpt lat="45.76521" lon="4.81079">
        <ele>266</ele>
        <time>2016-09-06T05:48:55Z</time>
      </trkpt>
      <trkpt lat="45.76525" lon="4.81059">
        <ele>271</ele>
        <time>2016-09-06T05:49:03Z</time>
      </trkpt>
      <trkpt lat="45.76532" lon="4.81055">
        <ele>269</ele>
        <time>2016-09-06T05:49:07Z</time>
      </trkpt>
      <trkpt lat="45.7654" lon="4.81039">
        <ele>265</ele>
        <time>2016-09-06T05:49:14Z</time>
      </trkpt>
      <trkpt lat="45.76548" lon="4.81018">
        <ele>268</ele>
        <time>2016-09-06T05:49:21Z</time>
      </trkpt>
      <trkpt lat="45.76566" lon="4.81021">
        <ele>259</ele>
        <time>2016-09-06T05:49:29Z</time>
      </trkpt>
      <trkpt lat="45.76571" lon="4.81016">
        <ele>259</ele>
        <time>2016-09-06T05:49:32Z</time>
      </trkpt>
      <trkpt lat="45.76576" lon="4.81012">
        <ele>257</ele>
        <time>2016-09-06T05:49:37Z</time>
      </trkpt>
      <trkpt lat="45.76584" lon="4.81002">
        <ele>256</ele>
        <time>2016-09-06T05:49:43Z</time>
      </trkpt>
      <trkpt lat="45.76601" lon="4.8099">
        <ele>259</ele>
        <time>2016-09-06T05:49:49Z</time>
      </trkpt>
      <trkpt lat="45.76612" lon="4.80983">
        <ele>263</ele>
        <time>2016-09-06T05:49:59Z</time>
      </trkpt>
      <trkpt lat="45.76614" lon="4.80979">
        <ele>265</ele>
        <time>2016-09-06T05:50:01Z</time>
      </trkpt>
      <trkpt lat="45.76624" lon="4.80973">
        <ele>267</ele>
        <time>2016-09-06T05:50:07Z</time>
      </trkpt>
      <trkpt lat="45.76636" lon="4.80959">
        <ele>268</ele>
        <time>2016-09-06T05:50:15Z</time>
      </trkpt>
      <trkpt lat="45.76637" lon="4.80953">
        <ele>271</ele>
        <time>2016-09-06T05:50:19Z</time>
      </trkpt>
      <trkpt lat="45.76645" lon="4.80952">
        <ele>270</ele>
        <time>2016-09-06T05:50:26Z</time>
      </trkpt>
      <trkpt lat="45.76655" lon="4.80951">
        <ele>266</ele>
        <time>2016-09-06T05:50:31Z</time>
      </trkpt>
      <trkpt lat="45.76674" lon="4.80933">
        <ele>255</ele>
        <time>2016-09-06T05:50:41Z</time>
      </trkpt>
      <trkpt lat="45.76683" lon="4.80928">
        <ele>256</ele>
        <time>2016-09-06T05:50:46Z</time>
      </trkpt>
      <trkpt lat="45.76689" lon="4.8093">
        <ele>255</ele>
        <time>2016-09-06T05:50:49Z</time>
      </trkpt>
      <trkpt lat="45.76699" lon="4.80938">
        <ele>255</ele>
        <time>2016-09-06T05:50:55Z</time>
      </trkpt>
      <trkpt lat="45.76717" lon="4.80945">
        <ele>258</ele>
        <time>2016-09-06T05:51:06Z</time>
      </trkpt>
      <trkpt lat="45.76723" lon="4.80945">
        <ele>256</ele>
        <time>2016-09-06T05:51:09Z</time>
      </trkpt>
      <trkpt lat="45.76738" lon="4.80948">
        <ele>249</ele>
        <time>2016-09-06T05:51:17Z</time>
      </trkpt>
      <trkpt lat="45.76742" lon="4.8095">
        <ele>251</ele>
        <time>2016-09-06T05:51:19Z</time>
      </trkpt>
      <trkpt lat="45.76757" lon="4.80952">
        <ele>251</ele>
        <time>2016-09-06T05:51:26Z</time>
      </trkpt>
      <trkpt lat="45.76764" lon="4.80953">
        <ele>251</ele>
        <time>2016-09-06T05:51:31Z</time>
      </trkpt>
      <trkpt lat="45.76779" lon="4.80959">
        <ele>249</ele>
        <time>2016-09-06T05:51:41Z</time>
      </trkpt>
      <trkpt lat="45.76782" lon="4.80959">
        <ele>249</ele>
        <time>2016-09-06T05:51:43Z</time>
      </trkpt>
      <trkpt lat="45.76798" lon="4.80955">
        <ele>245</ele>
        <time>2016-09-06T05:51:52Z</time>
      </trkpt>
      <trkpt lat="45.76803" lon="4.80958">
        <ele>243</ele>
        <time>2016-09-06T05:51:55Z</time>
      </trkpt>
      <trkpt lat="45.7682" lon="4.80962">
        <ele>243</ele>
        <time>2016-09-06T05:52:05Z</time>
      </trkpt>
      <trkpt lat="45.76823" lon="4.80963">
        <ele>244</ele>
        <time>2016-09-06T05:52:07Z</time>
      </trkpt>
      <trkpt lat="45.76839" lon="4.80975">
        <ele>245</ele>
        <time>2016-09-06T05:52:18Z</time>
      </trkpt>
      <trkpt lat="45.76839" lon="4.80978">
        <ele>245</ele>
        <time>2016-09-06T05:52:19Z</time>
      </trkpt>
      <trkpt lat="45.76827" lon="4.80986">
        <ele>244</ele>
        <time>2016-09-06T05:52:25Z</time>
      </trkpt>
      <trkpt lat="45.76815" lon="4.80991">
        <ele>241</ele>
        <time>2016-09-06T05:52:31Z</time>
      </trkpt>
      <trkpt lat="45.76803" lon="4.80999">
        <ele>241</ele>
        <time>2016-09-06T05:52:37Z</time>
      </trkpt>
      <trkpt lat="45.76791" lon="4.8101">
        <ele>237</ele>
        <time>2016-09-06T05:52:43Z</time>
      </trkpt>
      <trkpt lat="45.76782" lon="4.81015">
        <ele>237</ele>
        <time>2016-09-06T05:52:49Z</time>
      </trkpt>
      <trkpt lat="45.76769" lon="4.81017">
        <ele>231</ele>
        <time>2016-09-06T05:53:00Z</time>
      </trkpt>
      <trkpt lat="45.76766" lon="4.81017">
        <ele>233</ele>
        <time>2016-09-06T05:53:02Z</time>
      </trkpt>
      <trkpt lat="45.76756" lon="4.81019">
        <ele>228</ele>
        <time>2016-09-06T05:53:10Z</time>
      </trkpt>
      <trkpt lat="45.76744" lon="4.81027">
        <ele>225</ele>
        <time>2016-09-06T05:53:18Z</time>
      </trkpt>
      <trkpt lat="45.76743" lon="4.81028">
        <ele>229</ele>
        <time>2016-09-06T05:53:20Z</time>
      </trkpt>
      <trkpt lat="45.76725" lon="4.81045">
        <ele>228</ele>
        <time>2016-09-06T05:53:30Z</time>
      </trkpt>
      <trkpt lat="45.76722" lon="4.81051">
        <ele>229</ele>
        <time>2016-09-06T05:53:33Z</time>
      </trkpt>
      <trkpt lat="45.76725" lon="4.81056">
        <ele>226</ele>
        <time>2016-09-06T05:53:37Z</time>
      </trkpt>
      <trkpt lat="45.76734" lon="4.81054">
        <ele>223</ele>
        <time>2016-09-06T05:53:46Z</time>
      </trkpt>
      <trkpt lat="45.76737" lon="4.81055">
        <ele>223</ele>
        <time>2016-09-06T05:53:49Z</time>
      </trkpt>
      <trkpt lat="45.76742" lon="4.8107">
        <ele>221</ele>
        <time>2016-09-06T05:53:59Z</time>
      </trkpt>
      <trkpt lat="45.76741" lon="4.81075">
        <ele>222</ele>
        <time>2016-09-06T05:54:02Z</time>
      </trkpt>
      <trkpt lat="45.76739" lon="4.81084">
        <ele>222</ele>
        <time>2016-09-06T05:54:08Z</time>
      </trkpt>
      <trkpt lat="45.76731" lon="4.81096">
        <ele>223</ele>
        <time>2016-09-06T05:54:13Z</time>
      </trkpt>
      <trkpt lat="45.76719" lon="4.81106">
        <ele>220</ele>
        <time>2016-09-06T05:54:20Z</time>
      </trkpt>
      <trkpt lat="45.76714" lon="4.81109">
        <ele>225</ele>
        <time>2016-09-06T05:54:25Z</time>
      </trkpt>
      <trkpt lat="45.767" lon="4.81119">
        <ele>219</ele>
        <time>2016-09-06T05:54:36Z</time>
      </trkpt>
      <trkpt lat="45.76698" lon="4.81119">
        <ele>217</ele>
        <time>2016-09-06T05:54:37Z</time>
      </trkpt>
      <trkpt lat="45.76687" lon="4.81127">
        <ele>217</ele>
        <time>2016-09-06T05:54:43Z</time>
      </trkpt>
      <trkpt lat="45.76676" lon="4.81156">
        <ele>220</ele>
        <time>2016-09-06T05:54:53Z</time>
      </trkpt>
      <trkpt lat="45.76676" lon="4.81161">
        <ele>220</ele>
        <time>2016-09-06T05:54:55Z</time>
      </trkpt>
      <trkpt lat="45.76677" lon="4.81163">
        <ele>221</ele>
        <time>2016-09-06T05:55:01Z</time>
      </trkpt>
      <trkpt lat="45.76683" lon="4.81199">
        <ele>219</ele>
        <time>2016-09-06T05:55:12Z</time>
      </trkpt>
      <trkpt lat="45.76683" lon="4.81225">
        <ele>216</ele>
        <time>2016-09-06T05:55:18Z</time>
      </trkpt>
      <trkpt lat="45.76685" lon="4.81225">
        <ele>216</ele>
        <time>2016-09-06T05:55:19Z</time>
      </trkpt>
      <trkpt lat="45.76705" lon="4.81204">
        <ele>214</ele>
        <time>2016-09-06T05:55:25Z</time>
      </trkpt>
      <trkpt lat="45.76725" lon="4.81181">
        <ele>211</ele>
        <time>2016-09-06T05:55:35Z</time>
      </trkpt>
      <trkpt lat="45.76727" lon="4.81176">
        <ele>211</ele>
        <time>2016-09-06T05:55:37Z</time>
      </trkpt>
      <trkpt lat="45.76728" lon="4.81159">
        <ele>205</ele>
        <time>2016-09-06T05:55:43Z</time>
      </trkpt>
      <trkpt lat="45.76732" lon="4.81145">
        <ele>203</ele>
        <time>2016-09-06T05:55:49Z</time>
      </trkpt>
      <trkpt lat="45.76734" lon="4.81132">
        <ele>206</ele>
        <time>2016-09-06T05:55:55Z</time>
      </trkpt>
      <trkpt lat="45.76754" lon="4.81124">
        <ele>211</ele>
        <time>2016-09-06T05:56:09Z</time>
      </trkpt>
      <trkpt lat="45.76743" lon="4.81126">
        <ele>214</ele>
        <time>2016-09-06T05:56:17Z</time>
      </trkpt>
      <trkpt lat="45.7675" lon="4.81128">
        <ele>215</ele>
        <time>2016-09-06T05:56:20Z</time>
      </trkpt>
      <trkpt lat="45.76756" lon="4.81131">
        <ele>217</ele>
        <time>2016-09-06T05:56:25Z</time>
      </trkpt>
      <trkpt lat="45.76822" lon="4.81096">
        <ele>207</ele>
        <time>2016-09-06T05:56:58Z</time>
      </trkpt>
      <trkpt lat="45.76824" lon="4.81098">
        <ele>212</ele>
        <time>2016-09-06T05:56:59Z</time>
      </trkpt>
      <trkpt lat="45.76838" lon="4.81125">
        <ele>212</ele>
        <time>2016-09-06T05:57:08Z</time>
      </trkpt>
      <trkpt lat="45.76834" lon="4.8114">
        <ele>200</ele>
        <time>2016-09-06T05:57:16Z</time>
      </trkpt>
      <trkpt lat="45.76832" lon="4.81143">
        <ele>200</ele>
        <time>2016-09-06T05:57:18Z</time>
      </trkpt>
      <trkpt lat="45.76824" lon="4.81148">
        <ele>198</ele>
        <time>2016-09-06T05:57:23Z</time>
      </trkpt>
      <trkpt lat="45.76811" lon="4.81158">
        <ele>197</ele>
        <time>2016-09-06T05:57:32Z</time>
      </trkpt>
      <trkpt lat="45.76806" lon="4.81165">
        <ele>196</ele>
        <time>2016-09-06T05:57:37Z</time>
      </trkpt>
      <trkpt lat="45.76798" lon="4.81167">
        <ele>195</ele>
        <time>2016-09-06T05:57:42Z</time>
      </trkpt>
      <trkpt lat="45.76785" lon="4.81171">
        <ele>190</ele>
        <time>2016-09-06T05:57:51Z</time>
      </trkpt>
      <trkpt lat="45.76778" lon="4.81174">
        <ele>191</ele>
        <time>2016-09-06T05:57:57Z</time>
      </trkpt>
      <trkpt lat="45.76771" lon="4.81184">
        <ele>192</ele>
        <time>2016-09-06T05:58:01Z</time>
      </trkpt>
      <trkpt lat="45.76762" lon="4.81196">
        <ele>193</ele>
        <time>2016-09-06T05:58:06Z</time>
      </trkpt>
      <trkpt lat="45.76749" lon="4.81207">
        <ele>193</ele>
        <time>2016-09-06T05:58:13Z</time>
      </trkpt>
      <trkpt lat="45.76741" lon="4.8121">
        <ele>193</ele>
        <time>2016-09-06T05:58:18Z</time>
      </trkpt>
      <trkpt lat="45.76737" lon="4.81234">
        <ele>190</ele>
        <time>2016-09-06T05:58:27Z</time>
      </trkpt>
      <trkpt lat="45.76735" lon="4.81248">
        <ele>189</ele>
        <time>2016-09-06T05:58:34Z</time>
      </trkpt>
      <trkpt lat="45.76742" lon="4.81264">
        <ele>187</ele>
        <time>2016-09-06T05:58:41Z</time>
      </trkpt>
      <trkpt lat="45.76748" lon="4.81282">
        <ele>187</ele>
        <time>2016-09-06T05:58:47Z</time>
      </trkpt>
      <trkpt lat="45.76748" lon="4.81295">
        <ele>187</ele>
        <time>2016-09-06T05:58:51Z</time>
      </trkpt>
      <trkpt lat="45.76762" lon="4.81296">
        <ele>186</ele>
        <time>2016-09-06T05:58:56Z</time>
      </trkpt>
      <trkpt lat="45.76767" lon="4.81305">
        <ele>180</ele>
        <time>2016-09-06T05:59:00Z</time>
      </trkpt>
      <trkpt lat="45.76773" lon="4.81318">
        <ele>179</ele>
        <time>2016-09-06T05:59:06Z</time>
      </trkpt>
      <trkpt lat="45.76797" lon="4.81308">
        <ele>174</ele>
        <time>2016-09-06T05:59:17Z</time>
      </trkpt>
      <trkpt lat="45.76798" lon="4.81308">
        <ele>174</ele>
        <time>2016-09-06T05:59:18Z</time>
      </trkpt>
      <trkpt lat="45.76802" lon="4.81313">
        <ele>177</ele>
        <time>2016-09-06T05:59:25Z</time>
      </trkpt>
      <trkpt lat="45.76803" lon="4.81315">
        <ele>175</ele>
        <time>2016-09-06T05:59:32Z</time>
      </trkpt>
      <trkpt lat="45.76809" lon="4.81316">
        <ele>175</ele>
        <time>2016-09-06T05:59:39Z</time>
      </trkpt>
      <trkpt lat="45.76805" lon="4.81311">
        <ele>174</ele>
        <time>2016-09-06T05:59:42Z</time>
      </trkpt>
      <trkpt lat="45.7681" lon="4.81309">
        <ele>176</ele>
        <time>2016-09-06T05:59:48Z</time>
      </trkpt>
      <trkpt lat="45.76826" lon="4.813">
        <ele>175</ele>
        <time>2016-09-06T05:59:59Z</time>
      </trkpt>
      <trkpt lat="45.76828" lon="4.81298">
        <ele>175</ele>
        <time>2016-09-06T06:00:00Z</time>
      </trkpt>
      <trkpt lat="45.76838" lon="4.8129">
        <ele>177</ele>
        <time>2016-09-06T06:00:06Z</time>
      </trkpt>
      <trkpt lat="45.76847" lon="4.81286">
        <ele>176</ele>
        <time>2016-09-06T06:00:12Z</time>
      </trkpt>
      <trkpt lat="45.76865" lon="4.81283">
        <ele>176</ele>
        <time>2016-09-06T06:00:23Z</time>
      </trkpt>
      <trkpt lat="45.76874" lon="4.81282">
        <ele>174</ele>
        <time>2016-09-06T06:00:28Z</time>
      </trkpt>
      <trkpt lat="45.76879" lon="4.81282">
        <ele>174</ele>
        <time>2016-09-06T06:00:31Z</time>
      </trkpt>
      <trkpt lat="45.76889" lon="4.8128">
        <ele>171</ele>
        <time>2016-09-06T06:00:37Z</time>
      </trkpt>
      <trkpt lat="45.76898" lon="4.81277">
        <ele>170</ele>
        <time>2016-09-06T06:00:43Z</time>
      </trkpt>
      <trkpt lat="45.76914" lon="4.81276">
        <ele>168</ele>
        <time>2016-09-06T06:00:53Z</time>
      </trkpt>
      <trkpt lat="45.76915" lon="4.81276">
        <ele>168</ele>
        <time>2016-09-06T06:00:54Z</time>
      </trkpt>
      <trkpt lat="45.76931" lon="4.81272">
        <ele>173</ele>
        <time>2016-09-06T06:01:03Z</time>
      </trkpt>
      <trkpt lat="45.76937" lon="4.81271">
        <ele>175</ele>
        <time>2016-09-06T06:01:06Z</time>
      </trkpt>
      <trkpt lat="45.76955" lon="4.81271">
        <ele>175</ele>
        <time>2016-09-06T06:01:17Z</time>
      </trkpt>
      <trkpt lat="45.76959" lon="4.8127">
        <ele>175</ele>
        <time>2016-09-06T06:01:19Z</time>
      </trkpt>
      <trkpt lat="45.76967" lon="4.81268">
        <ele>177</ele>
        <time>2016-09-06T06:01:24Z</time>
      </trkpt>
      <trkpt lat="45.76984" lon="4.81268">
        <ele>176</ele>
        <time>2016-09-06T06:01:34Z</time>
      </trkpt>
      <trkpt lat="45.7699" lon="4.81269">
        <ele>176</ele>
        <time>2016-09-06T06:01:38Z</time>
      </trkpt>
      <trkpt lat="45.76994" lon="4.81276">
        <ele>176</ele>
        <time>2016-09-06T06:01:42Z</time>
      </trkpt>
      <trkpt lat="45.76997" lon="4.81293">
        <ele>174</ele>
        <time>2016-09-06T06:01:49Z</time>
      </trkpt>
      <trkpt lat="45.76999" lon="4.81305">
        <ele>172</ele>
        <time>2016-09-06T06:01:54Z</time>
      </trkpt>
      <trkpt lat="45.77002" lon="4.81322">
        <ele>175</ele>
        <time>2016-09-06T06:02:01Z</time>
      </trkpt>
      <trkpt lat="45.77008" lon="4.81347">
        <ele>175</ele>
        <time>2016-09-06T06:02:11Z</time>
      </trkpt>
      <trkpt lat="45.77009" lon="4.81353">
        <ele>174</ele>
        <time>2016-09-06T06:02:13Z</time>
      </trkpt>
      <trkpt lat="45.7701" lon="4.81365">
        <ele>175</ele>
        <time>2016-09-06T06:02:18Z</time>
      </trkpt>
      <trkpt lat="45.77015" lon="4.81378">
        <ele>179</ele>
        <time>2016-09-06T06:02:24Z</time>
      </trkpt>
      <trkpt lat="45.77019" lon="4.81391">
        <ele>181</ele>
        <time>2016-09-06T06:02:30Z</time>
      </trkpt>
      <trkpt lat="45.77022" lon="4.81406">
        <ele>180</ele>
        <time>2016-09-06T06:02:37Z</time>
      </trkpt>
      <trkpt lat="45.77024" lon="4.81411">
        <ele>181</ele>
        <time>2016-09-06T06:02:42Z</time>
      </trkpt>
      <trkpt lat="45.7702" lon="4.81411">
        <ele>180</ele>
        <time>2016-09-06T06:02:50Z</time>
      </trkpt>
      <trkpt lat="45.77021" lon="4.81411">
        <ele>180</ele>
        <time>2016-09-06T06:02:54Z</time>
      </trkpt>
      <trkpt lat="45.77023" lon="4.81414">
        <ele>179</ele>
        <time>2016-09-06T06:03:03Z</time>
      </trkpt>
      <trkpt lat="45.77028" lon="4.81417">
        <ele>181</ele>
        <time>2016-09-06T06:03:06Z</time>
      </trkpt>
      <trkpt lat="45.77039" lon="4.8142">
        <ele>175</ele>
        <time>2016-09-06T06:03:12Z</time>
      </trkpt>
      <trkpt lat="45.77048" lon="4.8142">
        <ele>176</ele>
        <time>2016-09-06T06:03:18Z</time>
      </trkpt>
      <trkpt lat="45.77058" lon="4.8142">
        <ele>170</ele>
        <time>2016-09-06T06:03:24Z</time>
      </trkpt>
      <trkpt lat="45.77067" lon="4.81418">
        <ele>171</ele>
        <time>2016-09-06T06:03:30Z</time>
      </trkpt>
      <trkpt lat="45.7708" lon="4.81422">
        <ele>165</ele>
        <time>2016-09-06T06:03:39Z</time>
      </trkpt>
      <trkpt lat="45.77083" lon="4.81423">
        <ele>166</ele>
        <time>2016-09-06T06:03:42Z</time>
      </trkpt>
      <trkpt lat="45.77091" lon="4.81419">
        <ele>163</ele>
        <time>2016-09-06T06:03:48Z</time>
      </trkpt>
      <trkpt lat="45.77098" lon="4.81412">
        <ele>162</ele>
        <time>2016-09-06T06:03:54Z</time>
      </trkpt>
      <trkpt lat="45.7711" lon="4.81405">
        <ele>169</ele>
        <time>2016-09-06T06:04:00Z</time>
      </trkpt>
      <trkpt lat="45.77117" lon="4.81401">
        <ele>167</ele>
        <time>2016-09-06T06:04:06Z</time>
      </trkpt>
      <trkpt lat="45.77127" lon="4.81404">
        <ele>170</ele>
        <time>2016-09-06T06:04:12Z</time>
      </trkpt>
      <trkpt lat="45.77137" lon="4.81422">
        <ele>171</ele>
        <time>2016-09-06T06:04:23Z</time>
      </trkpt>
      <trkpt lat="45.77132" lon="4.81427">
        <ele>171</ele>
        <time>2016-09-06T06:04:27Z</time>
      </trkpt>
      <trkpt lat="45.77129" lon="4.81429">
        <ele>174</ele>
        <time>2016-09-06T06:04:30Z</time>
      </trkpt>
      <trkpt lat="45.77127" lon="4.81433">
        <ele>173</ele>
        <time>2016-09-06T06:04:36Z</time>
      </trkpt>
      <trkpt lat="45.77126" lon="4.8144">
        <ele>174</ele>
        <time>2016-09-06T06:04:43Z</time>
      </trkpt>
      <trkpt lat="45.7713" lon="4.81442">
        <ele>180</ele>
        <time>2016-09-06T06:04:48Z</time>
      </trkpt>
      <trkpt lat="45.77136" lon="4.81449">
        <ele>180</ele>
        <time>2016-09-06T06:04:54Z</time>
      </trkpt>
      <trkpt lat="45.77139" lon="4.81461">
        <ele>181</ele>
        <time>2016-09-06T06:05:02Z</time>
      </trkpt>
      <trkpt lat="45.77143" lon="4.81469">
        <ele>184</ele>
        <time>2016-09-06T06:05:07Z</time>
      </trkpt>
      <trkpt lat="45.7715" lon="4.81479">
        <ele>185</ele>
        <time>2016-09-06T06:05:15Z</time>
      </trkpt>
      <trkpt lat="45.77152" lon="4.81482">
        <ele>187</ele>
        <time>2016-09-06T06:05:19Z</time>
      </trkpt>
      <trkpt lat="45.77157" lon="4.81493">
        <ele>191</ele>
        <time>2016-09-06T06:05:29Z</time>
      </trkpt>
      <trkpt lat="45.77157" lon="4.81494">
        <ele>197</ele>
        <time>2016-09-06T06:05:31Z</time>
      </trkpt>
      <trkpt lat="45.77151" lon="4.81499">
        <ele>200</ele>
        <time>2016-09-06T06:05:37Z</time>
      </trkpt>
      <trkpt lat="45.77145" lon="4.81495">
        <ele>195</ele>
        <time>2016-09-06T06:05:44Z</time>
      </trkpt>
      <trkpt lat="45.77141" lon="4.81507">
        <ele>197</ele>
        <time>2016-09-06T06:05:52Z</time>
      </trkpt>
      <trkpt lat="45.77142" lon="4.81514">
        <ele>197</ele>
        <time>2016-09-06T06:05:55Z</time>
      </trkpt>
      <trkpt lat="45.77149" lon="4.81534">
        <ele>205</ele>
        <time>2016-09-06T06:06:05Z</time>
      </trkpt>
      <trkpt lat="45.77154" lon="4.81546">
        <ele>205</ele>
        <time>2016-09-06T06:06:12Z</time>
      </trkpt>
      <trkpt lat="45.77154" lon="4.81547">
        <ele>208</ele>
        <time>2016-09-06T06:06:13Z</time>
      </trkpt>
      <trkpt lat="45.77158" lon="4.81557">
        <ele>209</ele>
        <time>2016-09-06T06:06:24Z</time>
      </trkpt>
      <trkpt lat="45.77154" lon="4.81561">
        <ele>214</ele>
        <time>2016-09-06T06:06:26Z</time>
      </trkpt>
      <trkpt lat="45.77143" lon="4.81572">
        <ele>221</ele>
        <time>2016-09-06T06:06:33Z</time>
      </trkpt>
      <trkpt lat="45.7714" lon="4.81578">
        <ele>221</ele>
        <time>2016-09-06T06:06:37Z</time>
      </trkpt>
      <trkpt lat="45.7714" lon="4.81589">
        <ele>216</ele>
        <time>2016-09-06T06:06:43Z</time>
      </trkpt>
      <trkpt lat="45.77133" lon="4.81592">
        <ele>218</ele>
        <time>2016-09-06T06:06:54Z</time>
      </trkpt>
      <trkpt lat="45.77126" lon="4.81592">
        <ele>216</ele>
        <time>2016-09-06T06:06:57Z</time>
      </trkpt>
      <trkpt lat="45.77117" lon="4.81594">
        <ele>218</ele>
        <time>2016-09-06T06:07:01Z</time>
      </trkpt>
      <trkpt lat="45.77102" lon="4.81599">
        <ele>220</ele>
        <time>2016-09-06T06:07:07Z</time>
      </trkpt>
      <trkpt lat="45.77079" lon="4.81604">
        <ele>223</ele>
        <time>2016-09-06T06:07:18Z</time>
      </trkpt>
      <trkpt lat="45.77075" lon="4.81602">
        <ele>225</ele>
        <time>2016-09-06T06:07:21Z</time>
      </trkpt>
      <trkpt lat="45.7707" lon="4.81597">
        <ele>222</ele>
        <time>2016-09-06T06:07:26Z</time>
      </trkpt>
      <trkpt lat="45.7706" lon="4.81595">
        <ele>220</ele>
        <time>2016-09-06T06:07:33Z</time>
      </trkpt>
      <trkpt lat="45.77053" lon="4.81597">
        <ele>218</ele>
        <time>2016-09-06T06:07:38Z</time>
      </trkpt>
      <trkpt lat="45.77044" lon="4.81602">
        <ele>219</ele>
        <time>2016-09-06T06:07:44Z</time>
      </trkpt>
      <trkpt lat="45.7703" lon="4.81606">
        <ele>214</ele>
        <time>2016-09-06T06:07:53Z</time>
      </trkpt>
      <trkpt lat="45.77024" lon="4.8161">
        <ele>212</ele>
        <time>2016-09-06T06:07:56Z</time>
      </trkpt>
      <trkpt lat="45.77007" lon="4.81602">
        <ele>212</ele>
        <time>2016-09-06T06:08:07Z</time>
      </trkpt>
      <trkpt lat="45.77007" lon="4.816">
        <ele>210</ele>
        <time>2016-09-06T06:08:08Z</time>
      </trkpt>
      <trkpt lat="45.76995" lon="4.81574">
        <ele>207</ele>
        <time>2016-09-06T06:08:19Z</time>
      </trkpt>
      <trkpt lat="45.7699" lon="4.8157">
        <ele>209</ele>
        <time>2016-09-06T06:08:21Z</time>
      </trkpt>
      <trkpt lat="45.76978" lon="4.81576">
        <ele>208</ele>
        <time>2016-09-06T06:08:30Z</time>
      </trkpt>
      <trkpt lat="45.76973" lon="4.81583">
        <ele>207</ele>
        <time>2016-09-06T06:08:35Z</time>
      </trkpt>
      <trkpt lat="45.76965" lon="4.81579">
        <ele>204</ele>
        <time>2016-09-06T06:08:41Z</time>
      </trkpt>
      <trkpt lat="45.7696" lon="4.81582">
        <ele>206</ele>
        <time>2016-09-06T06:08:44Z</time>
      </trkpt>
      <trkpt lat="45.76949" lon="4.81589">
        <ele>205</ele>
        <time>2016-09-06T06:08:51Z</time>
      </trkpt>
      <trkpt lat="45.76943" lon="4.81595">
        <ele>207</ele>
        <time>2016-09-06T06:08:56Z</time>
      </trkpt>
      <trkpt lat="45.7693" lon="4.8162">
        <ele>205</ele>
        <time>2016-09-06T06:09:07Z</time>
      </trkpt>
      <trkpt lat="45.76928" lon="4.81623">
        <ele>206</ele>
        <time>2016-09-06T06:09:08Z</time>
      </trkpt>
      <trkpt lat="45.76919" lon="4.81631">
        <ele>203</ele>
        <time>2016-09-06T06:09:15Z</time>
      </trkpt>
      <trkpt lat="45.76909" lon="4.81648">
        <ele>199</ele>
        <time>2016-09-06T06:09:24Z</time>
      </trkpt>
      <trkpt lat="45.76902" lon="4.81659">
        <ele>197</ele>
        <time>2016-09-06T06:09:31Z</time>
      </trkpt>
      <trkpt lat="45.76901" lon="4.81661">
        <ele>196</ele>
        <time>2016-09-06T06:09:32Z</time>
      </trkpt>
      <trkpt lat="45.76894" lon="4.81669">
        <ele>193</ele>
        <time>2016-09-06T06:09:38Z</time>
      </trkpt>
      <trkpt lat="45.76884" lon="4.81678">
        <ele>193</ele>
        <time>2016-09-06T06:09:44Z</time>
      </trkpt>
      <trkpt lat="45.76876" lon="4.81695">
        <ele>193</ele>
        <time>2016-09-06T06:09:52Z</time>
      </trkpt>
      <trkpt lat="45.76874" lon="4.81706">
        <ele>195</ele>
        <time>2016-09-06T06:09:57Z</time>
      </trkpt>
      <trkpt lat="45.7687" lon="4.81712">
        <ele>195</ele>
        <time>2016-09-06T06:10:04Z</time>
      </trkpt>
      <trkpt lat="45.76877" lon="4.81701">
        <ele>195</ele>
        <time>2016-09-06T06:10:08Z</time>
      </trkpt>
      <trkpt lat="45.76883" lon="4.81685">
        <ele>194</ele>
        <time>2016-09-06T06:10:14Z</time>
      </trkpt>
      <trkpt lat="45.76888" lon="4.81663">
        <ele>190</ele>
        <time>2016-09-06T06:10:24Z</time>
      </trkpt>
      <trkpt lat="45.7689" lon="4.81658">
        <ele>190</ele>
        <time>2016-09-06T06:10:28Z</time>
      </trkpt>
      <trkpt lat="45.76894" lon="4.8165">
        <ele>192</ele>
        <time>2016-09-06T06:10:32Z</time>
      </trkpt>
      <trkpt lat="45.76904" lon="4.81628">
        <ele>192</ele>
        <time>2016-09-06T06:10:42Z</time>
      </trkpt>
      <trkpt lat="45.76906" lon="4.81624">
        <ele>189</ele>
        <time>2016-09-06T06:10:44Z</time>
      </trkpt>
      <trkpt lat="45.76916" lon="4.81604">
        <ele>188</ele>
        <time>2016-09-06T06:10:55Z</time>
      </trkpt>
      <trkpt lat="45.76917" lon="4.81602">
        <ele>188</ele>
        <time>2016-09-06T06:10:56Z</time>
      </trkpt>
      <trkpt lat="45.76925" lon="4.8158">
        <ele>185</ele>
        <time>2016-09-06T06:11:07Z</time>
      </trkpt>
      <trkpt lat="45.76928" lon="4.81571">
        <ele>184</ele>
        <time>2016-09-06T06:11:11Z</time>
      </trkpt>
      <trkpt lat="45.76931" lon="4.81565">
        <ele>183</ele>
        <time>2016-09-06T06:11:15Z</time>
      </trkpt>
      <trkpt lat="45.76934" lon="4.81555">
        <ele>185</ele>
        <time>2016-09-06T06:11:20Z</time>
      </trkpt>
      <trkpt lat="45.76927" lon="4.81542">
        <ele>188</ele>
        <time>2016-09-06T06:11:30Z</time>
      </trkpt>
      <trkpt lat="45.76917" lon="4.81549">
        <ele>188</ele>
        <time>2016-09-06T06:11:36Z</time>
      </trkpt>
      <trkpt lat="45.76916" lon="4.81554">
        <ele>188</ele>
        <time>2016-09-06T06:11:38Z</time>
      </trkpt>
      <trkpt lat="45.7691" lon="4.81566">
        <ele>187</ele>
        <time>2016-09-06T06:11:44Z</time>
      </trkpt>
      <trkpt lat="45.76903" lon="4.81578">
        <ele>186</ele>
        <time>2016-09-06T06:11:50Z</time>
      </trkpt>
      <trkpt lat="45.76897" lon="4.8159">
        <ele>186</ele>
        <time>2016-09-06T06:11:56Z</time>
      </trkpt>
      <trkpt lat="45.7689" lon="4.81614">
        <ele>189</ele>
        <time>2016-09-06T06:12:07Z</time>
      </trkpt>
      <trkpt lat="45.76891" lon="4.81616">
        <ele>189</ele>
        <time>2016-09-06T06:12:08Z</time>
      </trkpt>
      <trkpt lat="45.76884" lon="4.81632">
        <ele>183</ele>
        <time>2016-09-06T06:12:16Z</time>
      </trkpt>
      <trkpt lat="45.76872" lon="4.81634">
        <ele>183</ele>
        <time>2016-09-06T06:12:20Z</time>
      </trkpt>
      <trkpt lat="45.76866" lon="4.81621">
        <ele>184</ele>
        <time>2016-09-06T06:12:29Z</time>
      </trkpt>
      <trkpt lat="45.76866" lon="4.8161">
        <ele>181</ele>
        <time>2016-09-06T06:12:33Z</time>
      </trkpt>
      <trkpt lat="45.76868" lon="4.81597">
        <ele>177</ele>
        <time>2016-09-06T06:12:39Z</time>
      </trkpt>
      <trkpt lat="45.76869" lon="4.81579">
        <ele>178</ele>
        <time>2016-09-06T06:12:47Z</time>
      </trkpt>
      <trkpt lat="45.76867" lon="4.81569">
        <ele>176</ele>
        <time>2016-09-06T06:12:51Z</time>
      </trkpt>
      <trkpt lat="45.76866" lon="4.81561">
        <ele>174</ele>
        <time>2016-09-06T06:12:57Z</time>
      </trkpt>
      <trkpt lat="45.76859" lon="4.81562">
        <ele>173</ele>
        <time>2016-09-06T06:13:04Z</time>
      </trkpt>
      <trkpt lat="45.76847" lon="4.81553">
        <ele>173</ele>
        <time>2016-09-06T06:13:14Z</time>
      </trkpt>
      <trkpt lat="45.76844" lon="4.81545">
        <ele>173</ele>
        <time>2016-09-06T06:13:19Z</time>
      </trkpt>
      <trkpt lat="45.7684" lon="4.81544">
        <ele>172</ele>
        <time>2016-09-06T06:13:22Z</time>
      </trkpt>
      <trkpt lat="45.76842" lon="4.81543">
        <ele>174</ele>
        <time>2016-09-06T06:13:28Z</time>
      </trkpt>
      <trkpt lat="45.76842" lon="4.81543">
        <ele>176</ele>
        <time>2016-09-06T06:13:35Z</time>
      </trkpt>
      <trkpt lat="45.76843" lon="4.81544">
        <ele>176</ele>
        <time>2016-09-06T06:13:43Z</time>
      </trkpt>
      <trkpt lat="45.76843" lon="4.81544">
        <ele>176</ele>
        <time>2016-09-06T06:13:45Z</time>
      </trkpt>
      <trkpt lat="45.76842" lon="4.81546">
        <ele>175</ele>
        <time>2016-09-06T06:13:51Z</time>
      </trkpt>
      <trkpt lat="45.76832" lon="4.81564">
        <ele>177</ele>
        <time>2016-09-06T06:13:58Z</time>
      </trkpt>
      <trkpt lat="45.76826" lon="4.81577">
        <ele>179</ele>
        <time>2016-09-06T06:14:03Z</time>
      </trkpt>
      <trkpt lat="45.7682" lon="4.8159">
        <ele>179</ele>
        <time>2016-09-06T06:14:09Z</time>
      </trkpt>
      <trkpt lat="45.76804" lon="4.81611">
        <ele>182</ele>
        <time>2016-09-06T06:14:20Z</time>
      </trkpt>
      <trkpt lat="45.76802" lon="4.81612">
        <ele>182</ele>
        <time>2016-09-06T06:14:21Z</time>
      </trkpt>
      <trkpt lat="45.76793" lon="4.81622">
        <ele>175</ele>
        <time>2016-09-06T06:14:31Z</time>
      </trkpt>
      <trkpt lat="45.76793" lon="4.81623">
        <ele>174</ele>
        <time>2016-09-06T06:14:33Z</time>
      </trkpt>
      <trkpt lat="45.7679" lon="4.81627">
        <ele>169</ele>
        <time>2016-09-06T06:14:39Z</time>
      </trkpt>
      <trkpt lat="45.76782" lon="4.81651">
        <ele>173</ele>
        <time>2016-09-06T06:14:49Z</time>
      </trkpt>
      <trkpt lat="45.76782" lon="4.81655">
        <ele>174</ele>
        <time>2016-09-06T06:14:51Z</time>
      </trkpt>
      <trkpt lat="45.76774" lon="4.81677">
        <ele>172</ele>
        <time>2016-09-06T06:15:02Z</time>
      </trkpt>
      <trkpt lat="45.76773" lon="4.81679">
        <ele>170</ele>
        <time>2016-09-06T06:15:04Z</time>
      </trkpt>
      <trkpt lat="45.7677" lon="4.81693">
        <ele>170</ele>
        <time>2016-09-06T06:15:09Z</time>
      </trkpt>
      <trkpt lat="45.76767" lon="4.81706">
        <ele>170</ele>
        <time>2016-09-06T06:15:15Z</time>
      </trkpt>
      <trkpt lat="45.76765" lon="4.81721">
        <ele>168</ele>
        <time>2016-09-06T06:15:21Z</time>
      </trkpt>
      <trkpt lat="45.76762" lon="4.81742">
        <ele>168</ele>
        <time>2016-09-06T06:15:30Z</time>
      </trkpt>
      <trkpt lat="45.7676" lon="4.81748">
        <ele>168</ele>
        <time>2016-09-06T06:15:33Z</time>
      </trkpt>
      <trkpt lat="45.76756" lon="4.81768">
        <ele>169</ele>
        <time>2016-09-06T06:15:42Z</time>
      </trkpt>
      <trkpt lat="45.76751" lon="4.81786">
        <ele>170</ele>
        <time>2016-09-06T06:15:49Z</time>
      </trkpt>
      <trkpt lat="45.76747" lon="4.81789">
        <ele>168</ele>
        <time>2016-09-06T06:15:51Z</time>
      </trkpt>
      <trkpt lat="45.76742" lon="4.81805">
        <ele>167</ele>
        <time>2016-09-06T06:15:58Z</time>
      </trkpt>
      <trkpt lat="45.76739" lon="4.81822">
        <ele>169</ele>
        <time>2016-09-06T06:16:04Z</time>
      </trkpt>
      <trkpt lat="45.76744" lon="4.81846">
        <ele>168</ele>
        <time>2016-09-06T06:16:13Z</time>
      </trkpt>
      <trkpt lat="45.76744" lon="4.81865">
        <ele>166</ele>
        <time>2016-09-06T06:16:20Z</time>
      </trkpt>
      <trkpt lat="45.7674" lon="4.81881">
        <ele>168</ele>
        <time>2016-09-06T06:16:26Z</time>
      </trkpt>
      <trkpt lat="45.7674" lon="4.81895">
        <ele>168</ele>
        <time>2016-09-06T06:16:32Z</time>
      </trkpt>
      <trkpt lat="45.76742" lon="4.81903">
        <ele>171</ele>
        <time>2016-09-06T06:16:36Z</time>
      </trkpt>
      <trkpt lat="45.76745" lon="4.81909">
        <ele>170</ele>
        <time>2016-09-06T06:16:39Z</time>
      </trkpt>
      <trkpt lat="45.76753" lon="4.81922">
        <ele>170</ele>
        <time>2016-09-06T06:16:45Z</time>
      </trkpt>
      <trkpt lat="45.76758" lon="4.81947">
        <ele>172</ele>
        <time>2016-09-06T06:16:55Z</time>
      </trkpt>
      <trkpt lat="45.7676" lon="4.81961">
        <ele>167</ele>
        <time>2016-09-06T06:17:01Z</time>
      </trkpt>
      <trkpt lat="45.76758" lon="4.81968">
        <ele>163</ele>
        <time>2016-09-06T06:17:04Z</time>
      </trkpt>
      <trkpt lat="45.76759" lon="4.8198">
        <ele>165</ele>
        <time>2016-09-06T06:17:09Z</time>
      </trkpt>
      <trkpt lat="45.76762" lon="4.81997">
        <ele>165</ele>
        <time>2016-09-06T06:17:16Z</time>
      </trkpt>
      <trkpt lat="45.76759" lon="4.82016">
        <ele>169</ele>
        <time>2016-09-06T06:17:23Z</time>
      </trkpt>
      <trkpt lat="45.76762" lon="4.8203">
        <ele>169</ele>
        <time>2016-09-06T06:17:29Z</time>
      </trkpt>
      <trkpt lat="45.76767" lon="4.82046">
        <ele>170</ele>
        <time>2016-09-06T06:17:36Z</time>
      </trkpt>
      <trkpt lat="45.7677" lon="4.82063">
        <ele>170</ele>
        <time>2016-09-06T06:17:44Z</time>
      </trkpt>
      <trkpt lat="45.76769" lon="4.82077">
        <ele>171</ele>
        <time>2016-09-06T06:17:48Z</time>
      </trkpt>
      <trkpt lat="45.7677" lon="4.82093">
        <ele>171</ele>
        <time>2016-09-06T06:17:55Z</time>
      </trkpt>
      <trkpt lat="45.76773" lon="4.82103">
        <ele>172</ele>
        <time>2016-09-06T06:17:59Z</time>
      </trkpt>
      <trkpt lat="45.76778" lon="4.8211">
        <ele>173</ele>
        <time>2016-09-06T06:18:03Z</time>
      </trkpt>
      <trkpt lat="45.76782" lon="4.82135">
        <ele>170</ele>
        <time>2016-09-06T06:18:14Z</time>
      </trkpt>
      <trkpt lat="45.76782" lon="4.82138">
        <ele>171</ele>
        <time>2016-09-06T06:18:15Z</time>
      </trkpt>
      <trkpt lat="45.76792" lon="4.82157">
        <ele>173</ele>
        <time>2016-09-06T06:18:25Z</time>
      </trkpt>
      <trkpt lat="45.76793" lon="4.82162">
        <ele>173</ele>
        <time>2016-09-06T06:18:27Z</time>
      </trkpt>
      <trkpt lat="45.76797" lon="4.82181">
        <ele>172</ele>
        <time>2016-09-06T06:18:35Z</time>
      </trkpt>
      <trkpt lat="45.768" lon="4.82189">
        <ele>172</ele>
        <time>2016-09-06T06:18:39Z</time>
      </trkpt>
      <trkpt lat="45.76806" lon="4.82202">
        <ele>170</ele>
        <time>2016-09-06T06:18:45Z</time>
      </trkpt>
      <trkpt lat="45.76812" lon="4.82221">
        <ele>168</ele>
        <time>2016-09-06T06:18:54Z</time>
      </trkpt>
      <trkpt lat="45.76812" lon="4.82229">
        <ele>168</ele>
        <time>2016-09-06T06:18:58Z</time>
      </trkpt>
      <trkpt lat="45.76814" lon="4.82244">
        <ele>168</ele>
        <time>2016-09-06T06:19:04Z</time>
      </trkpt>
      <trkpt lat="45.76814" lon="4.8226">
        <ele>167</ele>
        <time>2016-09-06T06:19:09Z</time>
      </trkpt>
      <trkpt lat="45.7682" lon="4.82283">
        <ele>169</ele>
        <time>2016-09-06T06:19:18Z</time>
      </trkpt>
      <trkpt lat="45.76821" lon="4.82293">
        <ele>166</ele>
        <time>2016-09-06T06:19:22Z</time>
      </trkpt>
      <trkpt lat="45.76821" lon="4.82315">
        <ele>164</ele>
        <time>2016-09-06T06:19:33Z</time>
      </trkpt>
      <trkpt lat="45.76822" lon="4.82317">
        <ele>162</ele>
        <time>2016-09-06T06:19:33Z</time>
      </trkpt>
      <trkpt lat="45.76826" lon="4.82333">
        <ele>165</ele>
        <time>2016-09-06T06:19:40Z</time>
      </trkpt>
      <trkpt lat="45.76824" lon="4.82348">
        <ele>168</ele>
        <time>2016-09-06T06:19:45Z</time>
      </trkpt>
      <trkpt lat="45.76825" lon="4.82364">
        <ele>166</ele>
        <time>2016-09-06T06:19:51Z</time>
      </trkpt>
      <trkpt lat="45.76827" lon="4.82379">
        <ele>167</ele>
        <time>2016-09-06T06:19:57Z</time>
      </trkpt>
      <trkpt lat="45.76824" lon="4.82396">
        <ele>164</ele>
        <time>2016-09-06T06:20:05Z</time>
      </trkpt>
      <trkpt lat="45.76829" lon="4.82405">
        <ele>163</ele>
        <time>2016-09-06T06:20:09Z</time>
      </trkpt>
      <trkpt lat="45.76826" lon="4.82427">
        <ele>166</ele>
        <time>2016-09-06T06:20:19Z</time>
      </trkpt>
      <trkpt lat="45.76833" lon="4.82441">
        <ele>166</ele>
        <time>2016-09-06T06:20:23Z</time>
      </trkpt>
      <trkpt lat="45.76832" lon="4.8245">
        <ele>165</ele>
        <time>2016-09-06T06:20:27Z</time>
      </trkpt>
      <trkpt lat="45.76827" lon="4.82472">
        <ele>169</ele>
        <time>2016-09-06T06:20:38Z</time>
      </trkpt>
      <trkpt lat="45.76828" lon="4.82475">
        <ele>168</ele>
        <time>2016-09-06T06:20:39Z</time>
      </trkpt>
      <trkpt lat="45.76828" lon="4.8249">
        <ele>171</ele>
        <time>2016-09-06T06:20:45Z</time>
      </trkpt>
      <trkpt lat="45.76832" lon="4.82516">
        <ele>167</ele>
        <time>2016-09-06T06:20:54Z</time>
      </trkpt>
      <trkpt lat="45.76834" lon="4.82533">
        <ele>170</ele>
        <time>2016-09-06T06:21:03Z</time>
      </trkpt>
      <trkpt lat="45.76832" lon="4.82543">
        <ele>170</ele>
        <time>2016-09-06T06:21:06Z</time>
      </trkpt>
      <trkpt lat="45.76831" lon="4.82551">
        <ele>170</ele>
        <time>2016-09-06T06:21:09Z</time>
      </trkpt>
      <trkpt lat="45.76832" lon="4.82569">
        <ele>171</ele>
        <time>2016-09-06T06:21:18Z</time>
      </trkpt>
      <trkpt lat="45.76831" lon="4.82572">
        <ele>172</ele>
        <time>2016-09-06T06:21:23Z</time>
      </trkpt>
      <trkpt lat="45.76834" lon="4.82577">
        <ele>168</ele>
        <time>2016-09-06T06:21:29Z</time>
      </trkpt>
      <trkpt lat="45.76833" lon="4.82587">
        <ele>167</ele>
        <time>2016-09-06T06:21:34Z</time>
      </trkpt>
      <trkpt lat="45.76823" lon="4.82631">
        <ele>165</ele>
        <time>2016-09-06T06:21:44Z</time>
      </trkpt>
      <trkpt lat="45.76824" lon="4.82642">
        <ele>166</ele>
        <time>2016-09-06T06:21:48Z</time>
      </trkpt>
      <trkpt lat="45.76826" lon="4.82651">
        <ele>165</ele>
        <time>2016-09-06T06:21:51Z</time>
      </trkpt>
      <trkpt lat="45.76824" lon="4.82667">
        <ele>167</ele>
        <time>2016-09-06T06:21:57Z</time>
      </trkpt>
      <trkpt lat="45.76819" lon="4.82691">
        <ele>160</ele>
        <time>2016-09-06T06:22:08Z</time>
      </trkpt>
      <trkpt lat="45.76814" lon="4.82705">
        <ele>162</ele>
        <time>2016-09-06T06:22:14Z</time>
      </trkpt>
      <trkpt lat="45.76812" lon="4.82718">
        <ele>166</ele>
        <time>2016-09-06T06:22:20Z</time>
      </trkpt>
      <trkpt lat="45.76811" lon="4.8272">
        <ele>165</ele>
        <time>2016-09-06T06:22:22Z</time>
      </trkpt>
      <trkpt lat="45.76809" lon="4.82733">
        <ele>163</ele>
        <time>2016-09-06T06:22:27Z</time>
      </trkpt>
      <trkpt lat="45.76805" lon="4.8275">
        <ele>163</ele>
        <time>2016-09-06T06:22:35Z</time>
      </trkpt>
      <trkpt lat="45.76801" lon="4.82762">
        <ele>161</ele>
        <time>2016-09-06T06:22:41Z</time>
      </trkpt>
      <trkpt lat="45.76793" lon="4.82783">
        <ele>164</ele>
        <time>2016-09-06T06:22:49Z</time>
      </trkpt>
      <trkpt lat="45.76791" lon="4.82786">
        <ele>163</ele>
        <time>2016-09-06T06:22:51Z</time>
      </trkpt>
      <trkpt lat="45.76786" lon="4.82797">
        <ele>163</ele>
        <time>2016-09-06T06:22:58Z</time>
      </trkpt>
      <trkpt lat="45.76782" lon="4.8281">
        <ele>161</ele>
        <time>2016-09-06T06:23:03Z</time>
      </trkpt>
      <trkpt lat="45.76775" lon="4.82834">
        <ele>165</ele>
        <time>2016-09-06T06:23:11Z</time>
      </trkpt>
      <trkpt lat="45.76769" lon="4.82841">
        <ele>163</ele>
        <time>2016-09-06T06:23:15Z</time>
      </trkpt>
      <trkpt lat="45.76762" lon="4.82852">
        <ele>166</ele>
        <time>2016-09-06T06:23:21Z</time>
      </trkpt>
      <trkpt lat="45.76755" lon="4.82876">
        <ele>167</ele>
        <time>2016-09-06T06:23:32Z</time>
      </trkpt>
      <trkpt lat="45.76754" lon="4.8288">
        <ele>166</ele>
        <time>2016-09-06T06:23:35Z</time>
      </trkpt>
      <trkpt lat="45.76746" lon="4.82885">
        <ele>165</ele>
        <time>2016-09-06T06:23:39Z</time>
      </trkpt>
      <trkpt lat="45.76737" lon="4.82897">
        <ele>169</ele>
        <time>2016-09-06T06:23:45Z</time>
      </trkpt>
      <trkpt lat="45.76727" lon="4.82907">
        <ele>164</ele>
        <time>2016-09-06T06:23:52Z</time>
      </trkpt>
      <trkpt lat="45.76725" lon="4.82919">
        <ele>164</ele>
        <time>2016-09-06T06:23:58Z</time>
      </trkpt>
      <trkpt lat="45.76721" lon="4.82928">
        <ele>164</ele>
        <time>2016-09-06T06:24:03Z</time>
      </trkpt>
      <trkpt lat="45.76708" lon="4.82939">
        <ele>164</ele>
        <time>2016-09-06T06:24:10Z</time>
      </trkpt>
      <trkpt lat="45.76702" lon="4.82957">
        <ele>164</ele>
        <time>2016-09-06T06:24:18Z</time>
      </trkpt>
      <trkpt lat="45.76699" lon="4.82965">
        <ele>164</ele>
        <time>2016-09-06T06:24:22Z</time>
      </trkpt>
      <trkpt lat="45.76693" lon="4.82978">
        <ele>163</ele>
        <time>2016-09-06T06:24:29Z</time>
      </trkpt>
      <trkpt lat="45.76684" lon="4.8299">
        <ele>166</ele>
        <time>2016-09-06T06:24:38Z</time>
      </trkpt>
      <trkpt lat="45.76682" lon="4.82993">
        <ele>165</ele>
        <time>2016-09-06T06:24:39Z</time>
      </trkpt>
      <trkpt lat="45.76674" lon="4.83014">
        <ele>166</ele>
        <time>2016-09-06T06:24:45Z</time>
      </trkpt>
      <trkpt lat="45.76655" lon="4.83027">
        <ele>161</ele>
        <time>2016-09-06T06:24:56Z</time>
      </trkpt>
      <trkpt lat="45.76646" lon="4.83026">
        <ele>162</ele>
        <time>2016-09-06T06:25:02Z</time>
      </trkpt>
      <trkpt lat="45.76645" lon="4.83027">
        <ele>163</ele>
        <time>2016-09-06T06:25:03Z</time>
      </trkpt>
      <trkpt lat="45.76636" lon="4.83034">
        <ele>161</ele>
        <time>2016-09-06T06:25:09Z</time>
      </trkpt>
      <trkpt lat="45.76627" lon="4.8304">
        <ele>156</ele>
        <time>2016-09-06T06:25:16Z</time>
      </trkpt>
      <trkpt lat="45.76616" lon="4.83051">
        <ele>156</ele>
        <time>2016-09-06T06:25:23Z</time>
      </trkpt>
      <trkpt lat="45.76605" lon="4.83064">
        <ele>152</ele>
        <time>2016-09-06T06:25:30Z</time>
      </trkpt>
      <trkpt lat="45.76601" lon="4.8307">
        <ele>154</ele>
        <time>2016-09-06T06:25:33Z</time>
      </trkpt>
      <trkpt lat="45.76588" lon="4.83075">
        <ele>160</ele>
        <time>2016-09-06T06:25:41Z</time>
      </trkpt>
      <trkpt lat="45.76581" lon="4.8308">
        <ele>158</ele>
        <time>2016-09-06T06:25:45Z</time>
      </trkpt>
      <trkpt lat="45.76571" lon="4.83089">
        <ele>157</ele>
        <time>2016-09-06T06:25:52Z</time>
      </trkpt>
      <trkpt lat="45.76565" lon="4.83098">
        <ele>156</ele>
        <time>2016-09-06T06:25:57Z</time>
      </trkpt>
      <trkpt lat="45.76557" lon="4.83102">
        <ele>159</ele>
        <time>2016-09-06T06:26:03Z</time>
      </trkpt>
      <trkpt lat="45.76551" lon="4.83115">
        <ele>160</ele>
        <time>2016-09-06T06:26:10Z</time>
      </trkpt>
      <trkpt lat="45.76536" lon="4.83126">
        <ele>167</ele>
        <time>2016-09-06T06:26:20Z</time>
      </trkpt>
      <trkpt lat="45.76527" lon="4.83132">
        <ele>166</ele>
        <time>2016-09-06T06:26:26Z</time>
      </trkpt>
      <trkpt lat="45.7652" lon="4.83132">
        <ele>169</ele>
        <time>2016-09-06T06:26:30Z</time>
      </trkpt>
      <trkpt lat="45.76511" lon="4.83133">
        <ele>169</ele>
        <time>2016-09-06T06:26:33Z</time>
      </trkpt>
      <trkpt lat="45.76494" lon="4.83125">
        <ele>173</ele>
        <time>2016-09-06T06:26:44Z</time>
      </trkpt>
      <trkpt lat="45.76489" lon="4.83127">
        <ele>171</ele>
        <time>2016-09-06T06:26:46Z</time>
      </trkpt>
      <trkpt lat="45.76477" lon="4.83128">
        <ele>169</ele>
        <time>2016-09-06T06:26:54Z</time>
      </trkpt>
      <trkpt lat="45.76472" lon="4.83129">
        <ele>168</ele>
        <time>2016-09-06T06:26:58Z</time>
      </trkpt>
      <trkpt lat="45.76459" lon="4.8313">
        <ele>163</ele>
        <time>2016-09-06T06:27:05Z</time>
      </trkpt>
      <trkpt lat="45.76454" lon="4.8313">
        <ele>165</ele>
        <time>2016-09-06T06:27:11Z</time>
      </trkpt>
      <trkpt lat="45.76439" lon="4.83124">
        <ele>162</ele>
        <time>2016-09-06T06:27:19Z</time>
      </trkpt>
      <trkpt lat="45.76432" lon="4.83124">
        <ele>161</ele>
        <time>2016-09-06T06:27:24Z</time>
      </trkpt>
      <trkpt lat="45.76425" lon="4.83122">
        <ele>160</ele>
        <time>2016-09-06T06:27:27Z</time>
      </trkpt>
      <trkpt lat="45.76412" lon="4.83125">
        <ele>163</ele>
        <time>2016-09-06T06:27:33Z</time>
      </trkpt>
      <trkpt lat="45.76402" lon="4.83124">
        <ele>159</ele>
        <time>2016-09-06T06:27:40Z</time>
      </trkpt>
      <trkpt lat="45.76392" lon="4.83128">
        <ele>161</ele>
        <time>2016-09-06T06:27:46Z</time>
      </trkpt>
      <trkpt lat="45.76379" lon="4.83129">
        <ele>158</ele>
        <time>2016-09-06T06:27:51Z</time>
      </trkpt>
      <trkpt lat="45.76363" lon="4.83128">
        <ele>158</ele>
        <time>2016-09-06T06:28:02Z</time>
      </trkpt>
      <trkpt lat="45.7635" lon="4.83125">
        <ele>162</ele>
        <time>2016-09-06T06:28:08Z</time>
      </trkpt>
      <trkpt lat="45.76349" lon="4.83124">
        <ele>164</ele>
        <time>2016-09-06T06:28:10Z</time>
      </trkpt>
      <trkpt lat="45.76338" lon="4.83128">
        <ele>158</ele>
        <time>2016-09-06T06:28:16Z</time>
      </trkpt>
      <trkpt lat="45.76332" lon="4.83141">
        <ele>155</ele>
        <time>2016-09-06T06:28:22Z</time>
      </trkpt>
      <trkpt lat="45.76317" lon="4.83141">
        <ele>157</ele>
        <time>2016-09-06T06:28:32Z</time>
      </trkpt>
      <trkpt lat="45.76306" lon="4.83138">
        <ele>163</ele>
        <time>2016-09-06T06:28:37Z</time>
      </trkpt>
      <trkpt lat="45.763" lon="4.83136">
        <ele>166</ele>
        <time>2016-09-06T06:28:40Z</time>
      </trkpt>
      <trkpt lat="45.76292" lon="4.83127">
        <ele>167</ele>
        <time>2016-09-06T06:28:45Z</time>
      </trkpt>
      <trkpt lat="45.76281" lon="4.83126">
        <ele>167</ele>
        <time>2016-09-06T06:28:52Z</time>
      </trkpt>
      <trkpt lat="45.76268" lon="4.83127">
        <ele>165</ele>
        <time>2016-09-06T06:28:58Z</time>
      </trkpt>
      <trkpt lat="45.76263" lon="4.83119">
        <ele>166</ele>
        <time>2016-09-06T06:29:03Z</time>
      </trkpt>
      <trkpt lat="45.76248" lon="4.83113">
        <ele>158</ele>
        <time>2016-09-06T06:29:12Z</time>
      </trkpt>
      <trkpt lat="45.7624" lon="4.83111">
        <ele>154</ele>
        <time>2016-09-06T06:29:15Z</time>
      </trkpt>
      <trkpt lat="45.76227" lon="4.83113">
        <ele>160</ele>
        <time>2016-09-06T06:29:21Z</time>
      </trkpt>
      <trkpt lat="45.76218" lon="4.83112">
        <ele>160</ele>
        <time>2016-09-06T06:29:28Z</time>
      </trkpt>
      <trkpt lat="45.76211" lon="4.83111">
        <ele>155</ele>
        <time>2016-09-06T06:29:33Z</time>
      </trkpt>
      <trkpt lat="45.76201" lon="4.83117">
        <ele>149</ele>
        <time>2016-09-06T06:29:40Z</time>
      </trkpt>
      <trkpt lat="45.76182" lon="4.83115">
        <ele>158</ele>
        <time>2016-09-06T06:29:50Z</time>
      </trkpt>
      <trkpt lat="45.76179" lon="4.83112">
        <ele>159</ele>
        <time>2016-09-06T06:29:53Z</time>
      </trkpt>
      <trkpt lat="45.76164" lon="4.831">
        <ele>160</ele>
        <time>2016-09-06T06:30:01Z</time>
      </trkpt>
      <trkpt lat="45.76154" lon="4.83096">
        <ele>160</ele>
        <time>2016-09-06T06:30:07Z</time>
      </trkpt>
      <trkpt lat="45.76149" lon="4.83094">
        <ele>162</ele>
        <time>2016-09-06T06:30:11Z</time>
      </trkpt>
      <trkpt lat="45.7614" lon="4.83093">
        <ele>162</ele>
        <time>2016-09-06T06:30:17Z</time>
      </trkpt>
      <trkpt lat="45.7613" lon="4.83091">
        <ele>159</ele>
        <time>2016-09-06T06:30:22Z</time>
      </trkpt>
      <trkpt lat="45.76106" lon="4.83091">
        <ele>161</ele>
        <time>2016-09-06T06:30:33Z</time>
      </trkpt>
      <trkpt lat="45.76097" lon="4.83087">
        <ele>167</ele>
        <time>2016-09-06T06:30:39Z</time>
      </trkpt>
      <trkpt lat="45.76094" lon="4.83084">
        <ele>168</ele>
        <time>2016-09-06T06:30:41Z</time>
      </trkpt>
      <trkpt lat="45.76078" lon="4.83068">
        <ele>169</ele>
        <time>2016-09-06T06:30:51Z</time>
      </trkpt>
      <trkpt lat="45.76075" lon="4.83066">
        <ele>168</ele>
        <time>2016-09-06T06:30:53Z</time>
      </trkpt>
      <trkpt lat="45.76064" lon="4.8306">
        <ele>167</ele>
        <time>2016-09-06T06:30:59Z</time>
      </trkpt>
      <trkpt lat="45.76054" lon="4.83052">
        <ele>164</ele>
        <time>2016-09-06T06:31:07Z</time>
      </trkpt>
      <trkpt lat="45.76046" lon="4.83048">
        <ele>159</ele>
        <time>2016-09-06T06:31:11Z</time>
      </trkpt>
      <trkpt lat="45.76036" lon="4.83045">
        <ele>159</ele>
        <time>2016-09-06T06:31:17Z</time>
      </trkpt>
      <trkpt lat="45.76032" lon="4.83029">
        <ele>159</ele>
        <time>2016-09-06T06:31:24Z</time>
      </trkpt>
      <trkpt lat="45.76023" lon="4.83022">
        <ele>163</ele>
        <time>2016-09-06T06:31:29Z</time>
      </trkpt>
      <trkpt lat="45.76015" lon="4.83016">
        <ele>161</ele>
        <time>2016-09-06T06:31:36Z</time>
      </trkpt>
      <trkpt lat="45.76005" lon="4.83012">
        <ele>162</ele>
        <time>2016-09-06T06:31:42Z</time>
      </trkpt>
      <trkpt lat="45.75997" lon="4.83002">
        <ele>165</ele>
        <time>2016-09-06T06:31:47Z</time>
      </trkpt>
      <trkpt lat="45.75989" lon="4.82991">
        <ele>163</ele>
        <time>2016-09-06T06:31:53Z</time>
      </trkpt>
      <trkpt lat="45.75975" lon="4.82981">
        <ele>158</ele>
        <time>2016-09-06T06:32:03Z</time>
      </trkpt>
      <trkpt lat="45.75971" lon="4.8298">
        <ele>158</ele>
        <time>2016-09-06T06:32:05Z</time>
      </trkpt>
      <trkpt lat="45.75961" lon="4.82972">
        <ele>161</ele>
        <time>2016-09-06T06:32:11Z</time>
      </trkpt>
      <trkpt lat="45.75947" lon="4.82956">
        <ele>159</ele>
        <time>2016-09-06T06:32:20Z</time>
      </trkpt>
      <trkpt lat="45.75943" lon="4.82953">
        <ele>159</ele>
        <time>2016-09-06T06:32:22Z</time>
      </trkpt>
      <trkpt lat="45.75934" lon="4.82941">
        <ele>159</ele>
        <time>2016-09-06T06:32:29Z</time>
      </trkpt>
      <trkpt lat="45.7593" lon="4.82925">
        <ele>160</ele>
        <time>2016-09-06T06:32:35Z</time>
      </trkpt>
      <trkpt lat="45.75911" lon="4.82919">
        <ele>164</ele>
        <time>2016-09-06T06:32:46Z</time>
      </trkpt>
      <trkpt lat="45.75908" lon="4.82926">
        <ele>163</ele>
        <time>2016-09-06T06:32:51Z</time>
      </trkpt>
      <trkpt lat="45.75904" lon="4.82927">
        <ele>163</ele>
        <time>2016-09-06T06:32:53Z</time>
      </trkpt>
      <trkpt lat="45.75892" lon="4.82922">
        <ele>163</ele>
        <time>2016-09-06T06:32:59Z</time>
      </trkpt>
      <trkpt lat="45.75881" lon="4.82916">
        <ele>161</ele>
        <time>2016-09-06T06:33:05Z</time>
      </trkpt>
      <trkpt lat="45.75869" lon="4.82902">
        <ele>153</ele>
        <time>2016-09-06T06:33:14Z</time>
      </trkpt>
      <trkpt lat="45.75866" lon="4.82899">
        <ele>155</ele>
        <time>2016-09-06T06:33:16Z</time>
      </trkpt>
      <trkpt lat="45.75851" lon="4.82873">
        <ele>157</ele>
        <time>2016-09-06T06:33:27Z</time>
      </trkpt>
      <trkpt lat="45.75851" lon="4.82871">
        <ele>158</ele>
        <time>2016-09-06T06:33:28Z</time>
      </trkpt>
      <trkpt lat="45.75846" lon="4.82855">
        <ele>159</ele>
        <time>2016-09-06T06:33:34Z</time>
      </trkpt>
      <trkpt lat="45.75836" lon="4.82845">
        <ele>161</ele>
        <time>2016-09-06T06:33:42Z</time>
      </trkpt>
      <trkpt lat="45.75831" lon="4.82839">
        <ele>163</ele>
        <time>2016-09-06T06:33:46Z</time>
      </trkpt>
      <trkpt lat="45.75821" lon="4.82832">
        <ele>161</ele>
        <time>2016-09-06T06:33:54Z</time>
      </trkpt>
      <trkpt lat="45.75808" lon="4.82822">
        <ele>165</ele>
        <time>2016-09-06T06:34:03Z</time>
      </trkpt>
      <trkpt lat="45.75807" lon="4.82819">
        <ele>167</ele>
        <time>2016-09-06T06:34:04Z</time>
      </trkpt>
      <trkpt lat="45.75795" lon="4.82803">
        <ele>169</ele>
        <time>2016-09-06T06:34:13Z</time>
      </trkpt>
      <trkpt lat="45.75791" lon="4.82799">
        <ele>170</ele>
        <time>2016-09-06T06:34:16Z</time>
      </trkpt>
      <trkpt lat="45.75782" lon="4.82792">
        <ele>170</ele>
        <time>2016-09-06T06:34:22Z</time>
      </trkpt>
      <trkpt lat="45.75765" lon="4.82791">
        <ele>165</ele>
        <time>2016-09-06T06:34:34Z</time>
      </trkpt>
      <trkpt lat="45.75764" lon="4.8279">
        <ele>164</ele>
        <time>2016-09-06T06:34:35Z</time>
      </trkpt>
      <trkpt lat="45.75755" lon="4.82785">
        <ele>165</ele>
        <time>2016-09-06T06:34:40Z</time>
      </trkpt>
      <trkpt lat="45.75747" lon="4.82773">
        <ele>170</ele>
        <time>2016-09-06T06:34:46Z</time>
      </trkpt>
      <trkpt lat="45.75737" lon="4.82765">
        <ele>169</ele>
        <time>2016-09-06T06:34:52Z</time>
      </trkpt>
      <trkpt lat="45.75725" lon="4.82753">
        <ele>172</ele>
        <time>2016-09-06T06:35:01Z</time>
      </trkpt>
      <trkpt lat="45.75715" lon="4.82743">
        <ele>170</ele>
        <time>2016-09-06T06:35:09Z</time>
      </trkpt>
      <trkpt lat="45.75714" lon="4.82741">
        <ele>171</ele>
        <time>2016-09-06T06:35:10Z</time>
      </trkpt>
      <trkpt lat="45.75704" lon="4.82727">
        <ele>172</ele>
        <time>2016-09-06T06:35:18Z</time>
      </trkpt>
      <trkpt lat="45.75696" lon="4.82723">
        <ele>172</ele>
        <time>2016-09-06T06:35:23Z</time>
      </trkpt>
      <trkpt lat="45.75686" lon="4.82705">
        <ele>171</ele>
        <time>2016-09-06T06:35:32Z</time>
      </trkpt>
      <trkpt lat="45.75677" lon="4.82698">
        <ele>170</ele>
        <time>2016-09-06T06:35:40Z</time>
      </trkpt>
      <trkpt lat="45.75675" lon="4.82695">
        <ele>171</ele>
        <time>2016-09-06T06:35:41Z</time>
      </trkpt>
      <trkpt lat="45.75663" lon="4.82684">
        <ele>170</ele>
        <time>2016-09-06T06:35:47Z</time>
      </trkpt>
      <trkpt lat="45.75653" lon="4.82674">
        <ele>168</ele>
        <time>2016-09-06T06:35:54Z</time>
      </trkpt>
      <trkpt lat="45.7565" lon="4.82661">
        <ele>168</ele>
        <time>2016-09-06T06:36:00Z</time>
      </trkpt>
      <trkpt lat="45.75646" lon="4.82652">
        <ele>166</ele>
        <time>2016-09-06T06:36:04Z</time>
      </trkpt>
      <trkpt lat="45.75635" lon="4.82642">
        <ele>165</ele>
        <time>2016-09-06T06:36:11Z</time>
      </trkpt>
      <trkpt lat="45.75623" lon="4.82637">
        <ele>169</ele>
        <time>2016-09-06T06:36:17Z</time>
      </trkpt>
      <trkpt lat="45.75608" lon="4.82635">
        <ele>167</ele>
        <time>2016-09-06T06:36:23Z</time>
      </trkpt>
      <trkpt lat="45.75599" lon="4.82646">
        <ele>166</ele>
        <time>2016-09-06T06:36:31Z</time>
      </trkpt>
      <trkpt lat="45.75599" lon="4.82656">
        <ele>166</ele>
        <time>2016-09-06T06:36:36Z</time>
      </trkpt>
      <trkpt lat="45.75604" lon="4.8269">
        <ele>167</ele>
        <time>2016-09-06T06:36:48Z</time>
      </trkpt>
      <trkpt lat="45.75575" lon="4.82711">
        <ele>172</ele>
        <time>2016-09-06T06:37:00Z</time>
      </trkpt>
      <trkpt lat="45.75588" lon="4.82728">
        <ele>174</ele>
        <time>2016-09-06T06:37:05Z</time>
      </trkpt>
      <trkpt lat="45.75578" lon="4.82725">
        <ele>173</ele>
        <time>2016-09-06T06:37:07Z</time>
      </trkpt>
      <trkpt lat="45.75562" lon="4.82733">
        <ele>178</ele>
        <time>2016-09-06T06:37:17Z</time>
      </trkpt>
      <trkpt lat="45.75559" lon="4.82733">
        <ele>180</ele>
        <time>2016-09-06T06:37:18Z</time>
      </trkpt>
      <trkpt lat="45.75541" lon="4.8273">
        <ele>174</ele>
        <time>2016-09-06T06:37:27Z</time>
      </trkpt>
      <trkpt lat="45.75531" lon="4.82727">
        <ele>175</ele>
        <time>2016-09-06T06:37:31Z</time>
      </trkpt>
      <trkpt lat="45.75522" lon="4.82715">
        <ele>175</ele>
        <time>2016-09-06T06:37:37Z</time>
      </trkpt>
      <trkpt lat="45.75493" lon="4.8266">
        <ele>181</ele>
        <time>2016-09-06T06:38:11Z</time>
      </trkpt>
      <trkpt lat="45.75487" lon="4.8266">
        <ele>181</ele>
        <time>2016-09-06T06:38:13Z</time>
      </trkpt>
      <trkpt lat="45.7547" lon="4.82698">
        <ele>184</ele>
        <time>2016-09-06T06:38:26Z</time>
      </trkpt>
      <trkpt lat="45.75449" lon="4.82721">
        <ele>185</ele>
        <time>2016-09-06T06:38:35Z</time>
      </trkpt>
      <trkpt lat="45.75443" lon="4.82737">
        <ele>185</ele>
        <time>2016-09-06T06:38:42Z</time>
      </trkpt>
      <trkpt lat="45.75446" lon="4.82741">
        <ele>184</ele>
        <time>2016-09-06T06:38:46Z</time>
      </trkpt>
      <trkpt lat="45.7545" lon="4.8274">
        <ele>185</ele>
        <time>2016-09-06T06:38:49Z</time>
      </trkpt>
      <trkpt lat="45.75456" lon="4.82736">
        <ele>188</ele>
        <time>2016-09-06T06:38:56Z</time>
      </trkpt>
      <trkpt lat="45.75432" lon="4.82797">
        <ele>189</ele>
        <time>2016-09-06T06:39:18Z</time>
      </trkpt>
      <trkpt lat="45.7543" lon="4.82798">
        <ele>188</ele>
        <time>2016-09-06T06:39:21Z</time>
      </trkpt>
      <trkpt lat="45.75425" lon="4.82806">
        <ele>191</ele>
        <time>2016-09-06T06:39:25Z</time>
      </trkpt>
    </trkseg>
  </trk>
</gpx>